Observation data for Goodnight on 05/24/2019      Previous  Date  Next       Current Mesonet Observations  Soil Data  Daily Summary Page  Observations in Plain Language
KGO1 240500Z 03004KT 20/18 A2996 RMK A01 T02000178  RH  087%=      5-min Rain = 0
KGO1 240501Z 02003KT 20/18 A2996 RMK A01 T01990178  RH  087%=      5-min Rain = 0
KGO1 240502Z 03004KT 20/18 A2996 RMK A01 T01990179  RH  088%=      5-min Rain = 0
KGO1 240503Z 03006KT 20/18 A2995 RMK A01 T01990180  RH  089%=      5-min Rain = 0
KGO1 240504Z 04007KT 20/18 A2995 RMK A01 T01980180  RH  090%=      5-min Rain = 0
KGO1 240505Z 06005KT 20/18 A2995 RMK A01 T01970181  RH  091%=      5-min Rain = 0
KGO1 240506Z 10005KT 20/18 A2995 RMK A01 T01960178  RH  089%=      5-min Rain = 0
KGO1 240507Z 08005KT 20/18 A2995 RMK A01 T01970181  RH  090%=      5-min Rain = 0
KGO1 240508Z 08005KT 20/18 A2995 RMK A01 T01970183  RH  091%=      5-min Rain = 0
KGO1 240509Z 10007KT 20/18 A2996 RMK A01 T01960183  RH  092%=      5-min Rain = 0
KGO1 240510Z 10010KT 20/19 A2996 RMK A01 T01960185  RH  093%=      5-min Rain = 0
KGO1 240511Z 10012KT 20/19 A2996 RMK A01 T01960186  RH  094%=      5-min Rain = 0
KGO1 240512Z 10014KT 20/19 A2996 RMK A01 T01970185  RH  093%=      5-min Rain = 0
KGO1 240513Z 11015G20KT 20/18 A2996 RMK A01 T01990184  RH  091%=      5-min Rain = 0
KGO1 240514Z 12016KT 20/18 A2997 RMK A01 T02000182  RH  090%=      5-min Rain = 0
KGO1 240515Z 12014KT 20/18 A2997 RMK A01 T01980182  RH  090%=      5-min Rain = 0
KGO1 240516Z 12013KT 20/18 A2997 RMK A01 T01970178  RH  089%=      5-min Rain = 0
KGO1 240517Z 09009KT 20/18 A2997 RMK A01 T01980178  RH  089%=      5-min Rain = 0
KGO1 240518Z 06007KT 20/18 A2996 RMK A01 T01980179  RH  089%=      5-min Rain = 0
KGO1 240519Z 05006KT 20/18 A2996 RMK A01 T01960178  RH  089%=      5-min Rain = 0
KGO1 240520Z 02005KT 20/18 A2996 RMK A01 T01960179  RH  090%=      5-min Rain = 0
KGO1 240521Z 35005KT 20/18 A2996 RMK A01 T01950178  RH  090%=      5-min Rain = 0
KGO1 240522Z 34007KT 20/18 A2996 RMK A01 T01950178  RH  090%=      5-min Rain = 0
KGO1 240523Z 00007KT 19/18 A2997 RMK A01 T01940176  RH  089%=      5-min Rain = 0
KGO1 240524Z 18004KT 20/18 A2997 RMK A01 T01960177  RH  089%=      5-min Rain = 0
KGO1 240525Z 19003KT 20/18 A2998 RMK A01 T01970175  RH  087%=      5-min Rain = 0
KGO1 240526Z 10001KT 20/18 A2998 RMK A01 T01980175  RH  086%=      5-min Rain = 0
KGO1 240527Z 03000KT 20/18 A2998 RMK A01 T02000175  RH  085%=      5-min Rain = 0
KGO1 240528Z 27003KT 20/18 A2998 RMK A01 T02020177  RH  085%=      5-min Rain = 0
KGO1 240529Z 25007KT 20/18 A2999 RMK A01 T02020178  RH  086%=      5-min Rain = 0
KGO1 240530Z 26011KT 20/18 A30 RMK A01 T02020182  RH  088%=      5-min Rain = 0
KGO1 240531Z 26010KT 20/19 A30 RMK A01 T02000185  RH  091%=      5-min Rain = 0
KGO1 240532Z 26008KT 20/18 A2999 RMK A01 T01990180  RH  088%=      5-min Rain = 0
KGO1 240533Z 27007KT 20/18 A2999 RMK A01 T02000179  RH  087%=      5-min Rain = 0
KGO1 240534Z 26005KT 20/18 A2998 RMK A01 T02020176  RH  085%=      5-min Rain = 0
KGO1 240535Z 23002KT 20/18 A2998 RMK A01 T02040178  RH  085%=      5-min Rain = 0
KGO1 240536Z 22002KT 21/18 A2999 RMK A01 T02050180  RH  086%=      5-min Rain = 0
KGO1 240537Z 25001KT 20/18 A2999 RMK A01 T02040179  RH  085%=      5-min Rain = 0
KGO1 240538Z 26000KT 20/18 A2999 RMK A01 T02040177  RH  085%=      5-min Rain = 0
KGO1 240539Z 16000KT 20/18 A2999 RMK A01 T02030177  RH  085%=      5-min Rain = 0
KGO1 240540Z 16002KT 20/18 A2999 RMK A01 T02030181  RH  087%=      5-min Rain = 0.01
KGO1 240541Z 17003KT 20/18 A2999 RMK A01 T02010181  RH  089%=      5-min Rain = 0
KGO1 240542Z 17002KT 20/18 A2999 RMK A01 T01990181  RH  089%=      5-min Rain = 0
KGO1 240543Z 18002KT 20/18 A2999 RMK A01 T01980181  RH  090%=      5-min Rain = 0
KGO1 240544Z 20002KT 20/18 A2999 RMK A01 T01970179  RH  089%=      5-min Rain = 0
KGO1 240545Z 20003KT 20/18 A2999 RMK A01 T01970179  RH  090%=      5-min Rain = 0.01
KGO1 240546Z 20005KT 20/18 A2999 RMK A01 T01970180  RH  090%=      5-min Rain = 0
KGO1 240547Z 20007KT 20/18 A30 RMK A01 T01960182  RH  091%=      5-min Rain = 0
KGO1 240548Z 21010KT 20/18 A3001 RMK A01 T01950181  RH  092%=      5-min Rain = 0.01
KGO1 240549Z 19009KT 19/18 A3001 RMK A01 T01940179  RH  091%=      5-min Rain = 0.02
KGO1 240550Z 18010KT 19/18 A3001 RMK A01 T01940183  RH  093%=      5-min Rain = 0.03
KGO1 240551Z 15012KT 19/19 A30 RMK A01 T01940186  RH  095%=      5-min Rain = 0.01
KGO1 240552Z 13011KT 19/19 A30 RMK A01 T01940186  RH  095%=      5-min Rain = 0.01
KGO1 240553Z 14011KT 19/18 A30 RMK A01 T01930177  RH  091%=      5-min Rain = 0.01
KGO1 240554Z 16008KT 19/15 A30 RMK A01 T01930151  RH  077%=      5-min Rain = 0.02
KGO1 240555Z 20007KT 19/14 A30 RMK A01 T01940137  RH  069%=      5-min Rain = 0.02
KGO1 240556Z 16009KT 20/15 A2999 RMK A01 T01960150  RH  075%=      5-min Rain = 0.03
KGO1 240557Z 15013KT 19/17 A30 RMK A01 T01930167  RH  085%=      5-min Rain = 0.02
KGO1 240558Z 15016G21KT 19/18 A3001 RMK A01 T01900175  RH  091%=      5-min Rain = 0.02
KGO1 240559Z 15019KT 19/17 A3002 RMK A01 T01860168  RH  089%=      5-min Rain = 0.03
KGO1 240600Z 14022KT 18/15 A3001 RMK A01 T01810151  RH  083%=      5-min Rain = 0.03
KGO1 240601Z 12022KT 17/15 A2999 RMK A01 T01700145  RH  085%=      5-min Rain = 0.03
KGO1 240602Z 12017KT 17/14 A2998 RMK A01 T01650137  RH  084%=      5-min Rain = 0.01
KGO1 240603Z 10008G13KT 17/13 A2997 RMK A01 T01690134  RH  080%=      5-min Rain = 0
KGO1 240604Z 10010G15KT 17/14 A2996 RMK A01 T01730136  RH  079%=      5-min Rain = 0
KGO1 240605Z 10012KT 17/14 A2996 RMK A01 T01690140  RH  083%=      5-min Rain = 0.01
KGO1 240606Z 10010KT 16/14 A2996 RMK A01 T01620139  RH  086%=      5-min Rain = 0.01
KGO1 240607Z 09011KT 16/14 A2996 RMK A01 T01600138  RH  087%=      5-min Rain = 0
KGO1 240608Z 10009KT 16/14 A2996 RMK A01 T01570141  RH  090%=      5-min Rain = 0
KGO1 240609Z 11008KT 15/14 A2996 RMK A01 T01540142  RH  092%=      5-min Rain = 0
KGO1 240610Z 10008KT 15/14 A2996 RMK A01 T01530143  RH  094%=      5-min Rain = 0
KGO1 240611Z 11009KT 15/14 A2996 RMK A01 T01520143  RH  094%=      5-min Rain = 0
KGO1 240612Z 11009KT 15/14 A2996 RMK A01 T01530142  RH  093%=      5-min Rain = 0
KGO1 240613Z 11008KT 15/14 A2996 RMK A01 T01540141  RH  092%=      5-min Rain = 0
KGO1 240614Z 12008KT 15/14 A2997 RMK A01 T01540142  RH  093%=      5-min Rain = 0
KGO1 240615Z 11009KT 15/14 A2997 RMK A01 T01530142  RH  093%=      5-min Rain = 0
KGO1 240616Z 11009KT 15/14 A2997 RMK A01 T01530141  RH  093%=      5-min Rain = 0
KGO1 240617Z 11010KT 15/14 A2998 RMK A01 T01520140  RH  092%=      5-min Rain = 0
KGO1 240618Z 11009KT 15/14 A2998 RMK A01 T01510139  RH  092%=      5-min Rain = 0
KGO1 240619Z 12012KT 15/14 A2998 RMK A01 T01510140  RH  093%=      5-min Rain = 0
KGO1 240620Z 12012KT 15/14 A2998 RMK A01 T01500139  RH  093%=      5-min Rain = 0
KGO1 240621Z 12010KT 15/14 A2998 RMK A01 T01500139  RH  094%=      5-min Rain = 0
KGO1 240622Z 12009KT 15/14 A2998 RMK A01 T01490140  RH  094%=      5-min Rain = 0
KGO1 240623Z 11007KT 15/14 A2998 RMK A01 T01490140  RH  094%=      5-min Rain = 0
KGO1 240624Z 12008KT 15/14 A2999 RMK A01 T01490140  RH  094%=      5-min Rain = 0
KGO1 240625Z 12007KT 15/14 A2999 RMK A01 T01490141  RH  095%=      5-min Rain = 0
KGO1 240626Z 11007KT 15/14 A30 RMK A01 T01490140  RH  094%=      5-min Rain = 0
KGO1 240627Z 11007KT 15/14 A30 RMK A01 T01490140  RH  094%=      5-min Rain = 0
KGO1 240628Z 11007KT 15/14 A3001 RMK A01 T01500140  RH  094%=      5-min Rain = 0
KGO1 240629Z 12008KT 15/14 A3001 RMK A01 T01500140  RH  094%=      5-min Rain = 0
KGO1 240630Z 12008KT 15/14 A3001 RMK A01 T01510139  RH  093%=      5-min Rain = 0
KGO1 240631Z 12009KT 15/14 A3001 RMK A01 T01520139  RH  092%=      5-min Rain = 0
KGO1 240632Z 11010KT 15/14 A3001 RMK A01 T01530139  RH  091%=      5-min Rain = 0
KGO1 240633Z 11011KT 15/14 A3001 RMK A01 T01540139  RH  091%=      5-min Rain = 0
KGO1 240634Z 11012KT 16/14 A3002 RMK A01 T01550139  RH  090%=      5-min Rain = 0
KGO1 240635Z 10008KT 16/14 A3001 RMK A01 T01550138  RH  090%=      5-min Rain = 0
KGO1 240636Z 10007KT 16/14 A3001 RMK A01 T01550139  RH  091%=      5-min Rain = 0
KGO1 240637Z 08007KT 15/14 A30 RMK A01 T01530139  RH  091%=      5-min Rain = 0
KGO1 240638Z 08009KT 15/14 A2999 RMK A01 T01530140  RH  092%=      5-min Rain = 0.01
KGO1 240639Z 08011KT 15/14 A2998 RMK A01 T01520140  RH  092%=      5-min Rain = 0
KGO1 240640Z 09010KT 15/14 A2997 RMK A01 T01520137  RH  091%=      5-min Rain = 0
KGO1 240641Z 09012KT 16/14 A2997 RMK A01 T01570139  RH  089%=      5-min Rain = 0.01
KGO1 240642Z 12009G15KT 16/14 A2998 RMK A01 T01600140  RH  088%=      5-min Rain = 0
KGO1 240643Z 09007KT 16/14 A2998 RMK A01 T01610140  RH  087%=      5-min Rain = 0
KGO1 240644Z 10008KT 16/14 A2998 RMK A01 T01610140  RH  087%=      5-min Rain = 0
KGO1 240645Z 11010KT 16/14 A2998 RMK A01 T01600140  RH  088%=      5-min Rain = 0
KGO1 240646Z 10014KT 16/14 A2998 RMK A01 T01600139  RH  087%=      5-min Rain = 0
KGO1 240647Z 09014KT 16/14 A2997 RMK A01 T01600138  RH  087%=      5-min Rain = 0
KGO1 240648Z 08013KT 16/14 A2997 RMK A01 T01600136  RH  086%=      5-min Rain = 0.01
KGO1 240649Z 08011KT 16/13 A2998 RMK A01 T01620134  RH  084%=      5-min Rain = 0
KGO1 240650Z 09009KT 16/14 A2998 RMK A01 T01630135  RH  083%=      5-min Rain = 0
KGO1 240651Z 08009KT 16/14 A2998 RMK A01 T01640137  RH  084%=      5-min Rain = 0
KGO1 240652Z 08008KT 16/14 A2998 RMK A01 T01630136  RH  084%=      5-min Rain = 0
KGO1 240653Z 08004KT 16/14 A2999 RMK A01 T01640135  RH  083%=      5-min Rain = 0
KGO1 240654Z 08008KT 16/14 A2998 RMK A01 T01640138  RH  084%=      5-min Rain = 0
KGO1 240655Z 07008KT 16/14 A2998 RMK A01 T01640138  RH  085%=      5-min Rain = 0.01
KGO1 240656Z 08007KT 16/14 A2998 RMK A01 T01630136  RH  084%=      5-min Rain = 0
KGO1 240657Z 11007G12KT 16/14 A2999 RMK A01 T01640138  RH  085%=      5-min Rain = 0
KGO1 240658Z 13006G13KT 17/14 A2998 RMK A01 T01650141  RH  085%=      5-min Rain = 0
KGO1 240659Z 14010KT 17/14 A2998 RMK A01 T01690143  RH  085%=      5-min Rain = 0
KGO1 240700Z 14009KT 17/15 A2997 RMK A01 T01740147  RH  084%=      5-min Rain = 0
KGO1 240701Z 15007KT 18/15 A2997 RMK A01 T01770149  RH  083%=      5-min Rain = 0
KGO1 240702Z 14007KT 18/15 A2997 RMK A01 T01780151  RH  084%=      5-min Rain = 0
KGO1 240703Z 12005KT 18/15 A2997 RMK A01 T01780152  RH  084%=      5-min Rain = 0
KGO1 240704Z 14003KT 18/15 A2997 RMK A01 T01780153  RH  085%=      5-min Rain = 0
KGO1 240705Z 14002KT 18/15 A2997 RMK A01 T01780152  RH  085%=      5-min Rain = 0
KGO1 240706Z 15002KT 18/15 A2998 RMK A01 T01770151  RH  085%=      5-min Rain = 0
KGO1 240707Z 15003KT 18/15 A2998 RMK A01 T01770151  RH  085%=      5-min Rain = 0
KGO1 240708Z 15004KT 18/15 A2997 RMK A01 T01780153  RH  085%=      5-min Rain = 0.01
KGO1 240709Z 17005KT 18/16 A2998 RMK A01 T01780156  RH  087%=      5-min Rain = 0
KGO1 240710Z 17005KT 18/16 A2998 RMK A01 T01780157  RH  088%=      5-min Rain = 0
KGO1 240711Z 16004KT 18/16 A2998 RMK A01 T01780157  RH  088%=      5-min Rain = 0
KGO1 240712Z 15004KT 18/16 A2998 RMK A01 T01780157  RH  087%=      5-min Rain = 0
KGO1 240713Z 16004KT 18/16 A2998 RMK A01 T01780158  RH  088%=      5-min Rain = 0
KGO1 240714Z 17005KT 18/16 A2998 RMK A01 T01780159  RH  089%=      5-min Rain = 0
KGO1 240715Z 18006KT 18/16 A2998 RMK A01 T01780160  RH  090%=      5-min Rain = 0
KGO1 240716Z 17007KT 18/16 A2998 RMK A01 T01770161  RH  091%=      5-min Rain = 0
KGO1 240717Z 18007KT 18/16 A2999 RMK A01 T01760162  RH  092%=      5-min Rain = 0
KGO1 240718Z 18006KT 18/16 A2998 RMK A01 T01750163  RH  093%=      5-min Rain = 0
KGO1 240719Z 18007KT 17/16 A2998 RMK A01 T01740162  RH  093%=      5-min Rain = 0.01
KGO1 240720Z 19007KT 17/16 A2998 RMK A01 T01740163  RH  093%=      5-min Rain = 0
KGO1 240721Z 20007KT 17/16 A2998 RMK A01 T01740163  RH  093%=      5-min Rain = 0
KGO1 240722Z 20006KT 17/16 A2998 RMK A01 T01740163  RH  093%=      5-min Rain = 0
KGO1 240723Z 19006KT 17/16 A2998 RMK A01 T01730162  RH  093%=      5-min Rain = 0
KGO1 240724Z 19007KT 17/16 A2998 RMK A01 T01730163  RH  094%=      5-min Rain = 0
KGO1 240725Z 19008KT 17/16 A2998 RMK A01 T01720163  RH  095%=      5-min Rain = 0
KGO1 240726Z 17007KT 17/16 A2998 RMK A01 T01710164  RH  095%=      5-min Rain = 0.01
KGO1 240727Z 16011KT 17/16 A2997 RMK A01 T01710164  RH  096%=      5-min Rain = 0
KGO1 240728Z 16012KT 17/16 A2997 RMK A01 T01710160  RH  094%=      5-min Rain = 0
KGO1 240729Z 16009KT 17/16 A2997 RMK A01 T01720159  RH  092%=      5-min Rain = 0
KGO1 240730Z 15009KT 17/16 A2996 RMK A01 T01730160  RH  092%=      5-min Rain = 0
KGO1 240731Z 15010KT 17/16 A2996 RMK A01 T01720160  RH  093%=      5-min Rain = 0.01
KGO1 240732Z 15010KT 17/16 A2996 RMK A01 T01710160  RH  093%=      5-min Rain = 0
KGO1 240733Z 14011KT 17/16 A2996 RMK A01 T01700160  RH  094%=      5-min Rain = 0
KGO1 240734Z 14011KT 17/16 A2996 RMK A01 T01700161  RH  095%=      5-min Rain = 0
KGO1 240735Z 14010KT 17/16 A2995 RMK A01 T01690162  RH  095%=      5-min Rain = 0
KGO1 240736Z 14010KT 17/16 A2995 RMK A01 T01690162  RH  096%=      5-min Rain = 0
KGO1 240737Z 14011KT 17/16 A2996 RMK A01 T01680162  RH  096%=      5-min Rain = 0
KGO1 240738Z 14012KT 17/16 A2995 RMK A01 T01680163  RH  097%=      5-min Rain = 0
KGO1 240739Z 14014KT 17/16 A2995 RMK A01 T01680163  RH  097%=      5-min Rain = 0
KGO1 240740Z 13013KT 17/16 A2994 RMK A01 T01680163  RH  097%=      5-min Rain = 0
KGO1 240741Z 12011KT 17/16 A2994 RMK A01 T01680162  RH  096%=      5-min Rain = 0
KGO1 240742Z 10009KT 17/16 A2993 RMK A01 T01680162  RH  096%=      5-min Rain = 0
KGO1 240743Z 10010KT 17/16 A2993 RMK A01 T01680162  RH  096%=      5-min Rain = 0
KGO1 240744Z 09011KT 17/16 A2991 RMK A01 T01680162  RH  096%=      5-min Rain = 0
KGO1 240745Z 09010KT 17/16 A2991 RMK A01 T01680162  RH  096%=      5-min Rain = 0.01
KGO1 240746Z 09011KT 17/16 A299 RMK A01 T01680161  RH  096%=      5-min Rain = 0
KGO1 240747Z 08011KT 17/16 A2989 RMK A01 T01680160  RH  095%=      5-min Rain = 0
KGO1 240748Z 08010KT 17/16 A2988 RMK A01 T01680159  RH  094%=      5-min Rain = 0
KGO1 240749Z 09009KT 17/16 A2989 RMK A01 T01690158  RH  093%=      5-min Rain = 0
KGO1 240750Z 10008KT 17/16 A2989 RMK A01 T01720158  RH  092%=      5-min Rain = 0
KGO1 240751Z 09009KT 17/16 A2988 RMK A01 T01730158  RH  091%=      5-min Rain = 0
KGO1 240752Z 09008KT 17/16 A2987 RMK A01 T01730156  RH  090%=      5-min Rain = 0
KGO1 240753Z 09009G14KT 18/16 A2987 RMK A01 T01750158  RH  090%=      5-min Rain = 0
KGO1 240754Z 07014G19KT 18/16 A2985 RMK A01 T01760158  RH  090%=      5-min Rain = 0
KGO1 240755Z 08017KT 18/16 A2984 RMK A01 T01780160  RH  089%=      5-min Rain = 0
KGO1 240756Z 09015KT 18/16 A2985 RMK A01 T01800161  RH  088%=      5-min Rain = 0
KGO1 240757Z 09013KT 18/16 A2986 RMK A01 T01810159  RH  087%=      5-min Rain = 0
KGO1 240758Z 10010KT 18/16 A2987 RMK A01 T01830158  RH  085%=      5-min Rain = 0
KGO1 240759Z 10007KT 18/16 A2987 RMK A01 T01840158  RH  085%=      5-min Rain = 0
KGO1 240800Z 12007KT 18/16 A2988 RMK A01 T01840159  RH  086%=      5-min Rain = 0
KGO1 240801Z 13009KT 18/16 A2989 RMK A01 T01830160  RH  086%=      5-min Rain = 0
KGO1 240802Z 13009KT 18/16 A2989 RMK A01 T01820160  RH  087%=      5-min Rain = 0
KGO1 240803Z 15009KT 18/16 A2989 RMK A01 T01810160  RH  088%=      5-min Rain = 0
KGO1 240804Z 16009KT 18/16 A299 RMK A01 T01800161  RH  089%=      5-min Rain = 0
KGO1 240805Z 16009KT 18/16 A299 RMK A01 T01790158  RH  088%=      5-min Rain = 0
KGO1 240806Z 19006KT 18/16 A299 RMK A01 T01800157  RH  086%=      5-min Rain = 0
KGO1 240807Z 21007KT 18/16 A299 RMK A01 T01810160  RH  088%=      5-min Rain = 0
KGO1 240808Z 19006KT 18/16 A299 RMK A01 T01790161  RH  089%=      5-min Rain = 0
KGO1 240809Z 19007KT 18/16 A299 RMK A01 T01780160  RH  089%=      5-min Rain = 0
KGO1 240810Z 20009KT 18/16 A2991 RMK A01 T01780159  RH  089%=      5-min Rain = 0
KGO1 240811Z 20012KT 18/16 A2992 RMK A01 T01780162  RH  090%=      5-min Rain = 0
KGO1 240812Z 20012KT 18/16 A2992 RMK A01 T01780163  RH  091%=      5-min Rain = 0
KGO1 240813Z 20010KT 18/16 A2991 RMK A01 T01770162  RH  091%=      5-min Rain = 0
KGO1 240814Z 20010KT 18/16 A2991 RMK A01 T01780162  RH  091%=      5-min Rain = 0
KGO1 240815Z 20010KT 18/16 A2991 RMK A01 T01780164  RH  091%=      5-min Rain = 0
KGO1 240816Z 19010KT 18/16 A2991 RMK A01 T01780164  RH  092%=      5-min Rain = 0
KGO1 240817Z 19011KT 18/16 A2991 RMK A01 T01780164  RH  092%=      5-min Rain = 0
KGO1 240818Z 20011KT 18/16 A2992 RMK A01 T01780164  RH  092%=      5-min Rain = 0
KGO1 240819Z 20011KT 18/16 A2992 RMK A01 T01770164  RH  092%=      5-min Rain = 0
KGO1 240820Z 19011KT 18/16 A2993 RMK A01 T01770164  RH  092%=      5-min Rain = 0
KGO1 240821Z 19010KT 18/16 A2993 RMK A01 T01770164  RH  092%=      5-min Rain = 0
KGO1 240822Z 20010KT 18/16 A2993 RMK A01 T01770163  RH  091%=      5-min Rain = 0
KGO1 240823Z 21008KT 18/16 A2993 RMK A01 T01780163  RH  091%=      5-min Rain = 0
KGO1 240824Z 22010KT 18/16 A2994 RMK A01 T01780163  RH  091%=      5-min Rain = 0
KGO1 240825Z 21010KT 18/16 A2994 RMK A01 T01780164  RH  092%=      5-min Rain = 0
KGO1 240826Z 22012KT 18/16 A2994 RMK A01 T01770164  RH  092%=      5-min Rain = 0
KGO1 240827Z 23011KT 18/17 A2995 RMK A01 T01760165  RH  093%=      5-min Rain = 0
KGO1 240828Z 24012KT 18/17 A2995 RMK A01 T01750165  RH  094%=      5-min Rain = 0
KGO1 240829Z 23013KT 18/17 A2994 RMK A01 T01750166  RH  094%=      5-min Rain = 0
KGO1 240830Z 23011KT 18/17 A2995 RMK A01 T01750166  RH  094%=      5-min Rain = 0
KGO1 240831Z 23013KT 18/17 A2995 RMK A01 T01750166  RH  095%=      5-min Rain = 0
KGO1 240832Z 22011KT 18/17 A2995 RMK A01 T01750166  RH  095%=      5-min Rain = 0
KGO1 240833Z 22011KT 18/17 A2995 RMK A01 T01750166  RH  094%=      5-min Rain = 0
KGO1 240834Z 22012KT 18/17 A2995 RMK A01 T01760165  RH  094%=      5-min Rain = 0
KGO1 240835Z 21010KT 18/17 A2995 RMK A01 T01760165  RH  093%=      5-min Rain = 0
KGO1 240836Z 21009KT 18/17 A2995 RMK A01 T01770165  RH  093%=      5-min Rain = 0
KGO1 240837Z 21010KT 18/16 A2996 RMK A01 T01770164  RH  092%=      5-min Rain = 0
KGO1 240838Z 21011KT 18/17 A2996 RMK A01 T01780165  RH  092%=      5-min Rain = 0
KGO1 240839Z 21010KT 18/16 A2996 RMK A01 T01780164  RH  092%=      5-min Rain = 0
KGO1 240840Z 21010KT 18/16 A2996 RMK A01 T01780164  RH  092%=      5-min Rain = 0
KGO1 240841Z 21009KT 18/17 A2996 RMK A01 T01780165  RH  092%=      5-min Rain = 0
KGO1 240842Z 21011KT 18/17 A2997 RMK A01 T01780165  RH  092%=      5-min Rain = 0
KGO1 240843Z 20010KT 18/17 A2997 RMK A01 T01780165  RH  092%=      5-min Rain = 0
KGO1 240844Z 20011KT 18/16 A2997 RMK A01 T01780164  RH  092%=      5-min Rain = 0
KGO1 240845Z 20009KT 18/16 A2997 RMK A01 T01780164  RH  092%=      5-min Rain = 0
KGO1 240846Z 20009KT 18/16 A2996 RMK A01 T01780164  RH  092%=      5-min Rain = 0
KGO1 240847Z 20010KT 18/16 A2996 RMK A01 T01780163  RH  091%=      5-min Rain = 0
KGO1 240848Z 20009KT 18/16 A2996 RMK A01 T01780163  RH  091%=      5-min Rain = 0
KGO1 240849Z 20008KT 18/16 A2995 RMK A01 T01780163  RH  091%=      5-min Rain = 0
KGO1 240850Z 21008KT 18/16 A2995 RMK A01 T01780162  RH  091%=      5-min Rain = 0
KGO1 240851Z 21009KT 18/16 A2995 RMK A01 T01780163  RH  091%=      5-min Rain = 0
KGO1 240852Z 21008KT 18/16 A2995 RMK A01 T01770162  RH  091%=      5-min Rain = 0
KGO1 240853Z 21008KT 18/16 A2995 RMK A01 T01770163  RH  091%=      5-min Rain = 0
KGO1 240854Z 22008KT 18/16 A2995 RMK A01 T01770163  RH  091%=      5-min Rain = 0
KGO1 240855Z 22008KT 18/16 A2994 RMK A01 T01770162  RH  091%=      5-min Rain = 0
KGO1 240856Z 23007KT 18/16 A2994 RMK A01 T01770163  RH  091%=      5-min Rain = 0
KGO1 240857Z 23007KT 18/16 A2994 RMK A01 T01770162  RH  091%=      5-min Rain = 0
KGO1 240858Z 23007KT 18/16 A2994 RMK A01 T01770163  RH  091%=      5-min Rain = 0
KGO1 240859Z 23007KT 18/16 A2995 RMK A01 T01770163  RH  092%=      5-min Rain = 0
KGO1 240900Z 23008KT 18/16 A2995 RMK A01 T01760163  RH  092%=      5-min Rain = 0
KGO1 240901Z 23007KT 18/16 A2995 RMK A01 T01760162  RH  092%=      5-min Rain = 0
KGO1 240902Z 23007KT 18/16 A2995 RMK A01 T01770163  RH  092%=      5-min Rain = 0
KGO1 240903Z 24007KT 18/16 A2995 RMK A01 T01760162  RH  092%=      5-min Rain = 0
KGO1 240904Z 24006KT 18/16 A2995 RMK A01 T01760163  RH  092%=      5-min Rain = 0
KGO1 240905Z 24006KT 18/16 A2996 RMK A01 T01760163  RH  092%=      5-min Rain = 0
KGO1 240906Z 24007KT 18/16 A2996 RMK A01 T01750163  RH  093%=      5-min Rain = 0
KGO1 240907Z 25007KT 18/16 A2996 RMK A01 T01750164  RH  093%=      5-min Rain = 0
KGO1 240908Z 26006KT 17/16 A2996 RMK A01 T01740164  RH  094%=      5-min Rain = 0
KGO1 240909Z 27005KT 17/17 A2996 RMK A01 T01730165  RH  095%=      5-min Rain = 0
KGO1 240910Z 28006KT 17/17 A2996 RMK A01 T01730165  RH  095%=      5-min Rain = 0
KGO1 240911Z 30005KT 17/17 A2995 RMK A01 T01720165  RH  096%=      5-min Rain = 0
KGO1 240912Z 30005KT 17/17 A2995 RMK A01 T01710165  RH  096%=      5-min Rain = 0
KGO1 240913Z 31004KT 17/17 A2995 RMK A01 T01700165  RH  097%=      5-min Rain = 0
KGO1 240914Z 33003KT 17/17 A2995 RMK A01 T01700165  RH  097%=      5-min Rain = 0
KGO1 240915Z 01002KT 17/16 A2994 RMK A01 T01690164  RH  097%=      5-min Rain = 0
KGO1 240916Z 02003KT 17/16 A2994 RMK A01 T01690163  RH  097%=      5-min Rain = 0
KGO1 240917Z 04004KT 17/16 A2994 RMK A01 T01680163  RH  097%=      5-min Rain = 0
KGO1 240918Z 04005KT 17/16 A2994 RMK A01 T01670163  RH  097%=      5-min Rain = 0
KGO1 240919Z 04005KT 17/16 A2993 RMK A01 T01670163  RH  097%=      5-min Rain = 0
KGO1 240920Z 04005KT 17/16 A2994 RMK A01 T01670163  RH  097%=      5-min Rain = 0
KGO1 240921Z 03004KT 17/16 A2994 RMK A01 T01660163  RH  098%=      5-min Rain = 0
KGO1 240922Z 35004KT 17/16 A2995 RMK A01 T01660163  RH  098%=      5-min Rain = 0
KGO1 240923Z 32004KT 17/16 A2997 RMK A01 T01660162  RH  098%=      5-min Rain = 0
KGO1 240924Z 30007KT 17/16 A2998 RMK A01 T01650161  RH  098%=      5-min Rain = 0
KGO1 240925Z 29007KT 16/16 A2999 RMK A01 T01640161  RH  098%=      5-min Rain = 0
KGO1 240926Z 29007KT 16/16 A2999 RMK A01 T01640162  RH  099%=      5-min Rain = 0
KGO1 240927Z 29005KT 16/16 A2999 RMK A01 T01640163  RH  099%=      5-min Rain = 0
KGO1 240928Z 31005KT 17/16 A2999 RMK A01 T01650163  RH  099%=      5-min Rain = 0
KGO1 240929Z 32005KT 17/16 A2998 RMK A01 T01650162  RH  098%=      5-min Rain = 0
KGO1 240930Z 33004KT 17/16 A2998 RMK A01 T01660162  RH  098%=      5-min Rain = 0
KGO1 240931Z 36002KT 17/16 A2998 RMK A01 T01660161  RH  097%=      5-min Rain = 0
KGO1 240932Z 00002KT 17/16 A2998 RMK A01 T01670161  RH  096%=      5-min Rain = 0
KGO1 240933Z 02003KT 17/16 A2998 RMK A01 T01660161  RH  096%=      5-min Rain = 0
KGO1 240934Z 04002KT 17/16 A2998 RMK A01 T01660161  RH  096%=      5-min Rain = 0
KGO1 240935Z 09002KT 17/16 A2998 RMK A01 T01660160  RH  097%=      5-min Rain = 0
KGO1 240936Z 08002KT 17/16 A2998 RMK A01 T01660161  RH  097%=      5-min Rain = 0
KGO1 240937Z 05000KT 17/16 A2998 RMK A01 T01650161  RH  097%=      5-min Rain = 0
KGO1 240938Z 05001KT 17/16 A2998 RMK A01 T01650159  RH  096%=      5-min Rain = 0
KGO1 240939Z 36001KT 17/16 A2998 RMK A01 T01660158  RH  095%=      5-min Rain = 0
KGO1 240940Z 36002KT 17/16 A2998 RMK A01 T01680158  RH  094%=      5-min Rain = 0
KGO1 240941Z 00000KT 17/16 A2998 RMK A01 T01690158  RH  093%=      5-min Rain = 0
KGO1 240942Z 15000KT 17/16 A2998 RMK A01 T01690157  RH  093%=      5-min Rain = 0
KGO1 240943Z 17001KT 17/16 A2998 RMK A01 T01690158  RH  093%=      5-min Rain = 0
KGO1 240944Z 21000KT 17/16 A2998 RMK A01 T01680158  RH  094%=      5-min Rain = 0
KGO1 240945Z 31001KT 17/16 A2997 RMK A01 T01680159  RH  094%=      5-min Rain = 0
KGO1 240946Z 34001KT 17/16 A2997 RMK A01 T01690159  RH  094%=      5-min Rain = 0
KGO1 240947Z 00000KT 17/16 A2998 RMK A01 T01690158  RH  093%=      5-min Rain = 0
KGO1 240948Z 00000KT 17/16 A2998 RMK A01 T01690157  RH  093%=      5-min Rain = 0
KGO1 240949Z 24000KT 17/16 A2998 RMK A01 T01690157  RH  093%=      5-min Rain = 0
KGO1 240950Z 24000KT 17/16 A2998 RMK A01 T01690157  RH  093%=      5-min Rain = 0
KGO1 240951Z 23000KT 17/16 A2998 RMK A01 T01690157  RH  093%=      5-min Rain = 0
KGO1 240952Z 00000KT 17/16 A2999 RMK A01 T01680157  RH  093%=      5-min Rain = 0
KGO1 240953Z 00000KT 17/16 A2999 RMK A01 T01680158  RH  093%=      5-min Rain = 0
KGO1 240954Z 00000KT 17/16 A2998 RMK A01 T01680158  RH  094%=      5-min Rain = 0
KGO1 240955Z 01002KT 17/16 A2998 RMK A01 T01680157  RH  093%=      5-min Rain = 0
KGO1 240956Z 01006KT 17/15 A2998 RMK A01 T01660149  RH  089%=      5-min Rain = 0
KGO1 240957Z 01005KT 16/14 A2998 RMK A01 T01600142  RH  089%=      5-min Rain = 0
KGO1 240958Z 02005KT 15/14 A2998 RMK A01 T01540140  RH  092%=      5-min Rain = 0
KGO1 240959Z 01005KT 15/14 A2998 RMK A01 T01500140  RH  093%=      5-min Rain = 0
KGO1 241000Z 35005KT 15/14 A2998 RMK A01 T01480140  RH  095%=      5-min Rain = 0
KGO1 241001Z 34006KT 15/14 A2998 RMK A01 T01470141  RH  096%=      5-min Rain = 0
KGO1 241002Z 32006KT 15/14 A2999 RMK A01 T01460141  RH  097%=      5-min Rain = 0
KGO1 241003Z 30007KT 15/14 A30 RMK A01 T01460142  RH  098%=      5-min Rain = 0
KGO1 241004Z 30010KT 15/14 A3001 RMK A01 T01450143  RH  098%=      5-min Rain = 0
KGO1 241005Z 30009KT 15/14 A3001 RMK A01 T01450143  RH  099%=      5-min Rain = 0
KGO1 241006Z 31009KT 14/14 A3001 RMK A01 T01440142  RH  099%=      5-min Rain = 0
KGO1 241007Z 31008KT 14/14 A3001 RMK A01 T01430141  RH  098%=      5-min Rain = 0
KGO1 241008Z 31008KT 14/14 A3001 RMK A01 T01420140  RH  098%=      5-min Rain = 0
KGO1 241009Z 31009KT 14/14 A3001 RMK A01 T01420139  RH  099%=      5-min Rain = 0
KGO1 241010Z 30008KT 14/14 A3001 RMK A01 T01410139  RH  099%=      5-min Rain = 0
KGO1 241011Z 30008KT 14/14 A30 RMK A01 T01410139  RH  099%=      5-min Rain = 0
KGO1 241012Z 30006KT 14/14 A30 RMK A01 T01400139  RH  099%=      5-min Rain = 0
KGO1 241013Z 30008KT 14/14 A30 RMK A01 T01400138  RH  099%=      5-min Rain = 0
KGO1 241014Z 31008KT 14/14 A30 RMK A01 T01400138  RH  099%=      5-min Rain = 0
KGO1 241015Z 31008KT 14/14 A30 RMK A01 T01390138  RH  099%=      5-min Rain = 0
KGO1 241016Z 31007KT 14/14 A30 RMK A01 T01390137  RH  099%=      5-min Rain = 0
KGO1 241017Z 31006KT 14/14 A30 RMK A01 T01390137  RH  099%=      5-min Rain = 0
KGO1 241018Z 31007KT 14/14 A2999 RMK A01 T01380136  RH  099%=      5-min Rain = 0
KGO1 241019Z 32006KT 14/14 A2999 RMK A01 T01380136  RH  099%=      5-min Rain = 0
KGO1 241020Z 32005KT 14/14 A2999 RMK A01 T01380136  RH  099%=      5-min Rain = 0
KGO1 241021Z 31004KT 14/14 A2999 RMK A01 T01380136  RH  099%=      5-min Rain = 0
KGO1 241022Z 31003KT 14/14 A2999 RMK A01 T01370137  RH  100%=      5-min Rain = 0
KGO1 241023Z 31003KT 14/14 A2999 RMK A01 T01370137  RH  100%=      5-min Rain = 0
KGO1 241024Z 31003KT 14/14 A30 RMK A01 T01370137  RH  100%=      5-min Rain = 0
KGO1 241025Z 31003KT 14/14 A30 RMK A01 T01370137  RH  100%=      5-min Rain = 0
KGO1 241026Z 32003KT 14/14 A3001 RMK A01 T01370137  RH  100%=      5-min Rain = 0
KGO1 241027Z 32003KT 14/14 A3001 RMK A01 T01370137  RH  100%=      5-min Rain = 0
KGO1 241028Z 33004KT 14/14 A3001 RMK A01 T01370137  RH  100%=      5-min Rain = 0
KGO1 241029Z 33005KT 14/14 A3001 RMK A01 T01370137  RH  100%=      5-min Rain = 0
KGO1 241030Z 34005KT 14/14 A3001 RMK A01 T01370137  RH  100%=      5-min Rain = 0
KGO1 241031Z 33005KT 14/14 A3001 RMK A01 T01370137  RH  100%=      5-min Rain = 0
KGO1 241032Z 33005KT 14/14 A3001 RMK A01 T01370137  RH  100%=      5-min Rain = 0
KGO1 241033Z 34004KT 14/14 A30 RMK A01 T01370137  RH  100%=      5-min Rain = 0
KGO1 241034Z 35005KT 14/14 A30 RMK A01 T01370137  RH  100%=      5-min Rain = 0
KGO1 241035Z 36003KT 14/14 A30 RMK A01 T01370137  RH  100%=      5-min Rain = 0
KGO1 241036Z 35001KT 14/14 A30 RMK A01 T01370137  RH  100%=      5-min Rain = 0
KGO1 241037Z 33002KT 14/14 A30 RMK A01 T01370137  RH  100%=      5-min Rain = 0
KGO1 241038Z 34003KT 14/14 A30 RMK A01 T01370137  RH  100%=      5-min Rain = 0
KGO1 241039Z 35002KT 14/14 A30 RMK A01 T01370137  RH  100%=      5-min Rain = 0
KGO1 241040Z 35003KT 14/14 A30 RMK A01 T01360136  RH  100%=      5-min Rain = 0
KGO1 241041Z 35003KT 14/14 A30 RMK A01 T01360136  RH  100%=      5-min Rain = 0
KGO1 241042Z 34002KT 14/14 A30 RMK A01 T01360137  RH  100%=      5-min Rain = 0
KGO1 241043Z 34002KT 14/14 A30 RMK A01 T01370137  RH  100%=      5-min Rain = 0
KGO1 241044Z 35002KT 14/14 A30 RMK A01 T01370137  RH  100%=      5-min Rain = 0
KGO1 241045Z 34002KT 14/14 A30 RMK A01 T01370137  RH  100%=      5-min Rain = 0
KGO1 241046Z 34002KT 14/14 A30 RMK A01 T01370137  RH  100%=      5-min Rain = 0
KGO1 241047Z 34002KT 14/14 A30 RMK A01 T01370137  RH  100%=      5-min Rain = 0
KGO1 241048Z 35002KT 14/14 A30 RMK A01 T01370137  RH  100%=      5-min Rain = 0
KGO1 241049Z 01003KT 14/14 A30 RMK A01 T01370137  RH  100%=      5-min Rain = 0
KGO1 241050Z 01003KT 14/14 A30 RMK A01 T01370137  RH  100%=      5-min Rain = 0
KGO1 241051Z 02004KT 14/14 A30 RMK A01 T01370137  RH  100%=      5-min Rain = 0
KGO1 241052Z 01005KT 14/14 A30 RMK A01 T01370137  RH  100%=      5-min Rain = 0
KGO1 241053Z 01004KT 14/14 A30 RMK A01 T01370137  RH  100%=      5-min Rain = 0
KGO1 241054Z 02005KT 14/14 A30 RMK A01 T01370137  RH  100%=      5-min Rain = 0
KGO1 241055Z 02005KT 14/14 A30 RMK A01 T01360136  RH  100%=      5-min Rain = 0
KGO1 241056Z 01004KT 14/14 A30 RMK A01 T01360136  RH  100%=      5-min Rain = 0
KGO1 241057Z 01005KT 14/14 A30 RMK A01 T01360136  RH  100%=      5-min Rain = 0
KGO1 241058Z 01005KT 14/14 A2999 RMK A01 T01360136  RH  100%=      5-min Rain = 0
KGO1 241059Z 00006KT 14/14 A2999 RMK A01 T01360136  RH  100%=      5-min Rain = 0
KGO1 241100Z 35006KT 14/14 A2999 RMK A01 T01350135  RH  100%=      5-min Rain = 0
KGO1 241101Z 34006KT 14/14 A30 RMK A01 T01350135  RH  100%=      5-min Rain = 0
KGO1 241102Z 34005KT 14/14 A2999 RMK A01 T01350135  RH  100%=      5-min Rain = 0
KGO1 241103Z 34006KT 13/13 A2999 RMK A01 T01340134  RH  100%=      5-min Rain = 0
KGO1 241104Z 34006KT 13/13 A2999 RMK A01 T01340134  RH  100%=      5-min Rain = 0
KGO1 241105Z 35006KT 13/13 A2999 RMK A01 T01340134  RH  100%=      5-min Rain = 0
KGO1 241106Z 35006KT 13/13 A30 RMK A01 T01340134  RH  100%=      5-min Rain = 0
KGO1 241107Z 34005KT 13/13 A30 RMK A01 T01340134  RH  100%=      5-min Rain = 0
KGO1 241108Z 34005KT 13/13 A30 RMK A01 T01340134  RH  100%=      5-min Rain = 0
KGO1 241109Z 33006KT 13/13 A3001 RMK A01 T01330133  RH  100%=      5-min Rain = 0
KGO1 241110Z 33006KT 13/13 A3001 RMK A01 T01330133  RH  100%=      5-min Rain = 0
KGO1 241111Z 33006KT 13/13 A3001 RMK A01 T01330133  RH  100%=      5-min Rain = 0
KGO1 241112Z 33006KT 13/13 A30 RMK A01 T01320132  RH  100%=      5-min Rain = 0
KGO1 241113Z 33006KT 13/13 A30 RMK A01 T01320132  RH  100%=      5-min Rain = 0
KGO1 241114Z 34005KT 13/13 A30 RMK A01 T01320132  RH  100%=      5-min Rain = 0
KGO1 241115Z 35005KT 13/13 A30 RMK A01 T01320132  RH  100%=      5-min Rain = 0
KGO1 241116Z 36004KT 13/13 A30 RMK A01 T01320132  RH  100%=      5-min Rain = 0
KGO1 241117Z 01005KT 13/13 A30 RMK A01 T01320132  RH  100%=      5-min Rain = 0
KGO1 241118Z 01006KT 13/13 A30 RMK A01 T01320132  RH  100%=      5-min Rain = 0
KGO1 241119Z 01006KT 13/13 A30 RMK A01 T01320132  RH  100%=      5-min Rain = 0
KGO1 241120Z 01006KT 13/13 A30 RMK A01 T01320132  RH  100%=      5-min Rain = 0
KGO1 241121Z 00006KT 13/13 A30 RMK A01 T01320132  RH  100%=      5-min Rain = 0
KGO1 241122Z 01005KT 13/13 A30 RMK A01 T01320132  RH  100%=      5-min Rain = 0
KGO1 241123Z 00005KT 13/13 A30 RMK A01 T01320132  RH  100%=      5-min Rain = 0
KGO1 241124Z 36006KT 13/13 A30 RMK A01 T01310131  RH  100%=      5-min Rain = 0
KGO1 241125Z 36007KT 13/13 A2999 RMK A01 T01310131  RH  100%=      5-min Rain = 0
KGO1 241126Z 00006KT 13/13 A2999 RMK A01 T01310131  RH  100%=      5-min Rain = 0
KGO1 241127Z 36005KT 13/13 A2999 RMK A01 T01310131  RH  100%=      5-min Rain = 0
KGO1 241128Z 35005KT 13/13 A2999 RMK A01 T01320132  RH  100%=      5-min Rain = 0
KGO1 241129Z 35004KT 13/13 A2999 RMK A01 T01310132  RH  100%=      5-min Rain = 0
KGO1 241130Z 35005KT 13/13 A2999 RMK A01 T01320132  RH  100%=      5-min Rain = 0
KGO1 241131Z 36005KT 13/13 A2999 RMK A01 T01320132  RH  100%=      5-min Rain = 0
KGO1 241132Z 00005KT 13/13 A2999 RMK A01 T01320132  RH  100%=      5-min Rain = 0
KGO1 241133Z 36006KT 13/13 A2999 RMK A01 T01320132  RH  100%=      5-min Rain = 0
KGO1 241134Z 35007KT 13/13 A2999 RMK A01 T01320132  RH  100%=      5-min Rain = 0
KGO1 241135Z 34006KT 13/13 A2999 RMK A01 T01320132  RH  100%=      5-min Rain = 0
KGO1 241136Z 34006KT 13/13 A2999 RMK A01 T01320132  RH  100%=      5-min Rain = 0
KGO1 241137Z 34005KT 13/13 A2999 RMK A01 T01320132  RH  100%=      5-min Rain = 0
KGO1 241138Z 34005KT 13/13 A30 RMK A01 T01320132  RH  100%=      5-min Rain = 0
KGO1 241139Z 34007KT 13/13 A2999 RMK A01 T01320132  RH  100%=      5-min Rain = 0
KGO1 241140Z 34006KT 13/13 A2999 RMK A01 T01320132  RH  100%=      5-min Rain = 0
KGO1 241141Z 33006KT 13/13 A2999 RMK A01 T01320132  RH  100%=      5-min Rain = 0
KGO1 241142Z 33005KT 13/13 A2999 RMK A01 T01310131  RH  100%=      5-min Rain = 0
KGO1 241143Z 33006KT 13/13 A2999 RMK A01 T01310131  RH  100%=      5-min Rain = 0
KGO1 241144Z 34006KT 13/13 A2999 RMK A01 T01310131  RH  100%=      5-min Rain = 0
KGO1 241145Z 34006KT 13/13 A2999 RMK A01 T01310131  RH  100%=      5-min Rain = 0
KGO1 241146Z 34006KT 13/13 A2999 RMK A01 T01310131  RH  100%=      5-min Rain = 0
KGO1 241147Z 33007KT 13/13 A2999 RMK A01 T01310131  RH  100%=      5-min Rain = 0
KGO1 241148Z 33006KT 13/13 A2999 RMK A01 T01310131  RH  100%=      5-min Rain = 0
KGO1 241149Z 33006KT 13/13 A2999 RMK A01 T01310131  RH  100%=      5-min Rain = 0
KGO1 241150Z 33006KT 13/13 A30 RMK A01 T01310131  RH  100%=      5-min Rain = 0
KGO1 241151Z 32005KT 13/13 A30 RMK A01 T01300130  RH  100%=      5-min Rain = 0
KGO1 241152Z 33006KT 13/13 A30 RMK A01 T01300130  RH  100%=      5-min Rain = 0
KGO1 241153Z 33006KT 13/13 A30 RMK A01 T01300130  RH  100%=      5-min Rain = 0
KGO1 241154Z 33004KT 13/13 A30 RMK A01 T01300130  RH  100%=      5-min Rain = 0
KGO1 241155Z 33004KT 13/13 A30 RMK A01 T01300131  RH  100%=      5-min Rain = 0
KGO1 241156Z 34005KT 13/13 A30 RMK A01 T01300130  RH  100%=      5-min Rain = 0
KGO1 241157Z 34005KT 13/13 A30 RMK A01 T01300130  RH  100%=      5-min Rain = 0
KGO1 241158Z 34005KT 13/13 A3001 RMK A01 T01300130  RH  100%=      5-min Rain = 0
KGO1 241159Z 33006KT 13/13 A3001 RMK A01 T01310131  RH  100%=      5-min Rain = 0
KGO1 241200Z 34006KT 13/13 A3001 RMK A01 T01310131  RH  100%=      5-min Rain = 0
KGO1 241201Z 33007KT 13/13 A30 RMK A01 T01310131  RH  100%=      5-min Rain = 0
KGO1 241202Z 34007KT 13/13 A30 RMK A01 T01310131  RH  100%=      5-min Rain = 0
KGO1 241203Z 34006KT 13/13 A30 RMK A01 T01310131  RH  100%=      5-min Rain = 0
KGO1 241204Z 34006KT 13/13 A30 RMK A01 T01310131  RH  100%=      5-min Rain = 0
KGO1 241205Z 34006KT 13/13 A30 RMK A01 T01310131  RH  100%=      5-min Rain = 0
KGO1 241206Z 35006KT 13/13 A30 RMK A01 T01310131  RH  100%=      5-min Rain = 0
KGO1 241207Z 35006KT 13/13 A30 RMK A01 T01310131  RH  100%=      5-min Rain = 0
KGO1 241208Z 34006KT 13/13 A3001 RMK A01 T01310131  RH  100%=      5-min Rain = 0
KGO1 241209Z 35004KT 13/13 A3001 RMK A01 T01310131  RH  100%=      5-min Rain = 0
KGO1 241210Z 35005KT 13/13 A30 RMK A01 T01310131  RH  100%=      5-min Rain = 0
KGO1 241211Z 34006KT 13/13 A30 RMK A01 T01310131  RH  100%=      5-min Rain = 0
KGO1 241212Z 34006KT 13/13 A30 RMK A01 T01310131  RH  100%=      5-min Rain = 0
KGO1 241213Z 34005KT 13/13 A30 RMK A01 T01310131  RH  100%=      5-min Rain = 0
KGO1 241214Z 34005KT 13/13 A30 RMK A01 T01320132  RH  100%=      5-min Rain = 0
KGO1 241215Z 34006KT 13/13 A30 RMK A01 T01320132  RH  100%=      5-min Rain = 0
KGO1 241216Z 33006KT 13/13 A30 RMK A01 T01320132  RH  100%=      5-min Rain = 0
KGO1 241217Z 33005KT 13/13 A30 RMK A01 T01320132  RH  100%=      5-min Rain = 0
KGO1 241218Z 34005KT 13/13 A30 RMK A01 T01330133  RH  100%=      5-min Rain = 0
KGO1 241219Z 34005KT 13/13 A30 RMK A01 T01330133  RH  100%=      5-min Rain = 0
KGO1 241220Z 34004KT 13/13 A3001 RMK A01 T01330133  RH  100%=      5-min Rain = 0
KGO1 241221Z 33004KT 13/13 A3001 RMK A01 T01320132  RH  100%=      5-min Rain = 0
KGO1 241222Z 33005KT 13/13 A30 RMK A01 T01330133  RH  100%=      5-min Rain = 0
KGO1 241223Z 33005KT 13/13 A30 RMK A01 T01330133  RH  100%=      5-min Rain = 0
KGO1 241224Z 33005KT 13/13 A30 RMK A01 T01330133  RH  100%=      5-min Rain = 0
KGO1 241225Z 33005KT 13/13 A30 RMK A01 T01340134  RH  100%=      5-min Rain = 0
KGO1 241226Z 33006KT 13/13 A30 RMK A01 T01340134  RH  100%=      5-min Rain = 0
KGO1 241227Z 33006KT 14/14 A30 RMK A01 T01350135  RH  100%=      5-min Rain = 0
KGO1 241228Z 33007KT 14/14 A30 RMK A01 T01350135  RH  100%=      5-min Rain = 0
KGO1 241229Z 33006KT 14/14 A30 RMK A01 T01350135  RH  100%=      5-min Rain = 0
KGO1 241230Z 33006KT 14/14 A30 RMK A01 T01350135  RH  100%=      5-min Rain = 0
KGO1 241231Z 35005KT 14/14 A30 RMK A01 T01350135  RH  100%=      5-min Rain = 0
KGO1 241232Z 34005KT 14/14 A30 RMK A01 T01350135  RH  100%=      5-min Rain = 0
KGO1 241233Z 34005KT 14/14 A30 RMK A01 T01360136  RH  100%=      5-min Rain = 0
KGO1 241234Z 33005KT 14/14 A30 RMK A01 T01350136  RH  100%=      5-min Rain = 0
KGO1 241235Z 33006KT 14/14 A30 RMK A01 T01360136  RH  100%=      5-min Rain = 0
KGO1 241236Z 33005KT 14/14 A3001 RMK A01 T01360136  RH  100%=      5-min Rain = 0
KGO1 241237Z 33006KT 14/14 A3001 RMK A01 T01360136  RH  100%=      5-min Rain = 0
KGO1 241238Z 34006KT 14/14 A3001 RMK A01 T01360136  RH  100%=      5-min Rain = 0
KGO1 241239Z 33005KT 14/14 A3001 RMK A01 T01360136  RH  100%=      5-min Rain = 0
KGO1 241240Z 34006KT 14/14 A3001 RMK A01 T01370137  RH  100%=      5-min Rain = 0
KGO1 241241Z 35006KT 14/14 A3001 RMK A01 T01370137  RH  100%=      5-min Rain = 0
KGO1 241242Z 35006KT 14/14 A3001 RMK A01 T01370137  RH  100%=      5-min Rain = 0
KGO1 241243Z 35005KT 14/14 A3001 RMK A01 T01370137  RH  100%=      5-min Rain = 0
KGO1 241244Z 34004KT 14/14 A3001 RMK A01 T01370137  RH  100%=      5-min Rain = 0
KGO1 241245Z 33006KT 14/14 A3001 RMK A01 T01370137  RH  100%=      5-min Rain = 0
KGO1 241246Z 33006KT 14/14 A3001 RMK A01 T01370137  RH  100%=      5-min Rain = 0
KGO1 241247Z 33007KT 14/14 A3001 RMK A01 T01380138  RH  100%=      5-min Rain = 0
KGO1 241248Z 33007KT 14/14 A3001 RMK A01 T01380138  RH  100%=      5-min Rain = 0
KGO1 241249Z 34005KT 14/14 A3001 RMK A01 T01380138  RH  100%=      5-min Rain = 0
KGO1 241250Z 34005KT 14/14 A3002 RMK A01 T01380138  RH  100%=      5-min Rain = 0
KGO1 241251Z 34004KT 14/14 A3002 RMK A01 T01380138  RH  100%=      5-min Rain = 0
KGO1 241252Z 35004KT 14/14 A3002 RMK A01 T01380138  RH  100%=      5-min Rain = 0
KGO1 241253Z 34005KT 14/14 A3002 RMK A01 T01380138  RH  100%=      5-min Rain = 0
KGO1 241254Z 35004KT 14/14 A3002 RMK A01 T01380138  RH  100%=      5-min Rain = 0
KGO1 241255Z 35006KT 14/14 A3002 RMK A01 T01380138  RH  100%=      5-min Rain = 0
KGO1 241256Z 34006KT 14/14 A3002 RMK A01 T01390139  RH  100%=      5-min Rain = 0
KGO1 241257Z 34006KT 14/14 A3001 RMK A01 T01380138  RH  100%=      5-min Rain = 0
KGO1 241258Z 34006KT 14/14 A3001 RMK A01 T01380138  RH  100%=      5-min Rain = 0
KGO1 241259Z 35006KT 14/14 A3001 RMK A01 T01390139  RH  100%=      5-min Rain = 0
KGO1 241300Z 36005KT 14/14 A3001 RMK A01 T01390139  RH  100%=      5-min Rain = 0
KGO1 241301Z 01005KT 14/14 A3001 RMK A01 T01390139  RH  100%=      5-min Rain = 0
KGO1 241302Z 01005KT 14/14 A3001 RMK A01 T01390139  RH  100%=      5-min Rain = 0
KGO1 241303Z 01005KT 14/14 A3001 RMK A01 T01390139  RH  100%=      5-min Rain = 0
KGO1 241304Z 00005KT 14/14 A3001 RMK A01 T01380138  RH  100%=      5-min Rain = 0
KGO1 241305Z 35005KT 14/14 A3001 RMK A01 T01390139  RH  100%=      5-min Rain = 0
KGO1 241306Z 35005KT 14/14 A3001 RMK A01 T01390139  RH  100%=      5-min Rain = 0
KGO1 241307Z 35005KT 14/14 A3001 RMK A01 T01390139  RH  100%=      5-min Rain = 0
KGO1 241308Z 35004KT 14/14 A3001 RMK A01 T01390139  RH  100%=      5-min Rain = 0
KGO1 241309Z 35004KT 14/14 A3001 RMK A01 T01390139  RH  100%=      5-min Rain = 0
KGO1 241310Z 34005KT 14/14 A3001 RMK A01 T01390139  RH  100%=      5-min Rain = 0
KGO1 241311Z 35005KT 14/14 A3001 RMK A01 T01390138  RH  100%=      5-min Rain = 0
KGO1 241312Z 35005KT 14/14 A3001 RMK A01 T01390139  RH  100%=      5-min Rain = 0
KGO1 241313Z 35005KT 14/14 A3001 RMK A01 T01390139  RH  100%=      5-min Rain = 0
KGO1 241314Z 35005KT 14/14 A3001 RMK A01 T01390139  RH  100%=      5-min Rain = 0
KGO1 241315Z 35005KT 14/14 A3001 RMK A01 T01400139  RH  100%=      5-min Rain = 0
KGO1 241316Z 35005KT 14/14 A3002 RMK A01 T01410141  RH  100%=      5-min Rain = 0
KGO1 241317Z 34005KT 14/14 A3002 RMK A01 T01410141  RH  100%=      5-min Rain = 0
KGO1 241318Z 34005KT 14/14 A3002 RMK A01 T01420142  RH  100%=      5-min Rain = 0
KGO1 241319Z 34005KT 14/14 A3002 RMK A01 T01410140  RH  099%=      5-min Rain = 0
KGO1 241320Z 33005KT 14/14 A3002 RMK A01 T01420142  RH  100%=      5-min Rain = 0
KGO1 241321Z 35005KT 14/14 A3002 RMK A01 T01420142  RH  099%=      5-min Rain = 0
KGO1 241322Z 34005KT 14/14 A3002 RMK A01 T01430142  RH  099%=      5-min Rain = 0
KGO1 241323Z 34005KT 14/14 A3002 RMK A01 T01440143  RH  100%=      5-min Rain = 0
KGO1 241324Z 34005KT 14/14 A3002 RMK A01 T01430142  RH  099%=      5-min Rain = 0
KGO1 241325Z 36004KT 14/14 A3003 RMK A01 T01430141  RH  099%=      5-min Rain = 0
KGO1 241326Z 35005KT 14/14 A3003 RMK A01 T01440142  RH  099%=      5-min Rain = 0
KGO1 241327Z 35004KT 14/14 A3003 RMK A01 T01440143  RH  099%=      5-min Rain = 0
KGO1 241328Z 34004KT 15/14 A3003 RMK A01 T01450144  RH  100%=      5-min Rain = 0
KGO1 241329Z 34004KT 15/14 A3003 RMK A01 T01450143  RH  099%=      5-min Rain = 0
KGO1 241330Z 35004KT 15/14 A3003 RMK A01 T01450143  RH  099%=      5-min Rain = 0
KGO1 241331Z 35004KT 15/14 A3003 RMK A01 T01450143  RH  099%=      5-min Rain = 0
KGO1 241332Z 34004KT 15/14 A3003 RMK A01 T01460144  RH  099%=      5-min Rain = 0
KGO1 241333Z 34004KT 15/14 A3003 RMK A01 T01460144  RH  099%=      5-min Rain = 0
KGO1 241334Z 34005KT 15/15 A3003 RMK A01 T01470145  RH  099%=      5-min Rain = 0
KGO1 241335Z 33004KT 15/15 A3003 RMK A01 T01490148  RH  099%=      5-min Rain = 0
KGO1 241336Z 34004KT 15/15 A3003 RMK A01 T01500149  RH  099%=      5-min Rain = 0
KGO1 241337Z 33005KT 15/15 A3003 RMK A01 T01510150  RH  099%=      5-min Rain = 0
KGO1 241338Z 33004KT 15/15 A3003 RMK A01 T01520151  RH  099%=      5-min Rain = 0
KGO1 241339Z 33006KT 15/15 A3003 RMK A01 T01520150  RH  099%=      5-min Rain = 0
KGO1 241340Z 33007KT 15/15 A3003 RMK A01 T01510148  RH  098%=      5-min Rain = 0
KGO1 241341Z 33006KT 15/15 A3003 RMK A01 T01500145  RH  097%=      5-min Rain = 0
KGO1 241342Z 33007KT 15/15 A3002 RMK A01 T01490145  RH  097%=      5-min Rain = 0
KGO1 241343Z 34006KT 15/15 A3002 RMK A01 T01490145  RH  098%=      5-min Rain = 0
KGO1 241344Z 34006KT 15/15 A3002 RMK A01 T01480145  RH  098%=      5-min Rain = 0
KGO1 241345Z 35007KT 15/15 A3002 RMK A01 T01480146  RH  099%=      5-min Rain = 0
KGO1 241346Z 35007KT 15/15 A3002 RMK A01 T01480146  RH  099%=      5-min Rain = 0
KGO1 241347Z 35007KT 15/15 A3002 RMK A01 T01480146  RH  099%=      5-min Rain = 0
KGO1 241348Z 34005KT 15/15 A3002 RMK A01 T01490147  RH  099%=      5-min Rain = 0
KGO1 241349Z 33006KT 15/15 A3002 RMK A01 T01500149  RH  099%=      5-min Rain = 0
KGO1 241350Z 33005KT 15/15 A3002 RMK A01 T01510150  RH  099%=      5-min Rain = 0
KGO1 241351Z 33006KT 15/15 A3002 RMK A01 T01530152  RH  099%=      5-min Rain = 0
KGO1 241352Z 34005KT 15/15 A3002 RMK A01 T01530150  RH  098%=      5-min Rain = 0
KGO1 241353Z 36006KT 15/15 A3002 RMK A01 T01530150  RH  098%=      5-min Rain = 0
KGO1 241354Z 36005KT 15/15 A3002 RMK A01 T01540150  RH  097%=      5-min Rain = 0
KGO1 241355Z 35005KT 16/15 A3002 RMK A01 T01560152  RH  098%=      5-min Rain = 0
KGO1 241356Z 34006KT 16/15 A3002 RMK A01 T01570152  RH  097%=      5-min Rain = 0
KGO1 241357Z 34005KT 16/15 A3002 RMK A01 T01570151  RH  096%=      5-min Rain = 0
KGO1 241358Z 34007KT 16/15 A3002 RMK A01 T01580153  RH  097%=      5-min Rain = 0
KGO1 241359Z 33007KT 16/15 A3002 RMK A01 T01590152  RH  096%=      5-min Rain = 0
KGO1 241400Z 34007KT 16/15 A3002 RMK A01 T01590150  RH  095%=      5-min Rain = 0
KGO1 241401Z 34005KT 16/15 A3002 RMK A01 T01580151  RH  095%=      5-min Rain = 0
KGO1 241402Z 34004KT 16/15 A3002 RMK A01 T01590154  RH  097%=      5-min Rain = 0
KGO1 241403Z 35006KT 16/15 A3001 RMK A01 T01610154  RH  096%=      5-min Rain = 0
KGO1 241404Z 35006KT 16/15 A3001 RMK A01 T01610152  RH  094%=      5-min Rain = 0
KGO1 241405Z 34004KT 16/16 A3001 RMK A01 T01620156  RH  096%=      5-min Rain = 0
KGO1 241406Z 35005KT 16/16 A3001 RMK A01 T01640157  RH  096%=      5-min Rain = 0
KGO1 241407Z 33005KT 17/16 A3001 RMK A01 T01650158  RH  096%=      5-min Rain = 0
KGO1 241408Z 35006KT 17/16 A3001 RMK A01 T01650157  RH  094%=      5-min Rain = 0
KGO1 241409Z 00005KT 17/16 A3001 RMK A01 T01660156  RH  094%=      5-min Rain = 0
KGO1 241410Z 36004KT 17/16 A3001 RMK A01 T01650156  RH  094%=      5-min Rain = 0
KGO1 241411Z 36005KT 17/16 A3001 RMK A01 T01650157  RH  095%=      5-min Rain = 0
KGO1 241412Z 36005KT 17/16 A3001 RMK A01 T01650156  RH  095%=      5-min Rain = 0
KGO1 241413Z 35004KT 16/15 A3001 RMK A01 T01640153  RH  093%=      5-min Rain = 0
KGO1 241414Z 33004KT 16/16 A3001 RMK A01 T01630155  RH  095%=      5-min Rain = 0
KGO1 241415Z 32005KT 16/16 A3001 RMK A01 T01640159  RH  096%=      5-min Rain = 0
KGO1 241416Z 33004KT 17/16 A3001 RMK A01 T01650156  RH  095%=      5-min Rain = 0
KGO1 241417Z 35004KT 17/16 A3001 RMK A01 T01650156  RH  094%=      5-min Rain = 0
KGO1 241418Z 35003KT 17/16 A3001 RMK A01 T01650157  RH  095%=      5-min Rain = 0
KGO1 241419Z 36005KT 17/16 A3001 RMK A01 T01660161  RH  097%=      5-min Rain = 0
KGO1 241420Z 35006KT 17/16 A30 RMK A01 T01660160  RH  096%=      5-min Rain = 0
KGO1 241421Z 35005KT 17/16 A3001 RMK A01 T01660156  RH  094%=      5-min Rain = 0
KGO1 241422Z 34005KT 17/16 A3001 RMK A01 T01650158  RH  095%=      5-min Rain = 0
KGO1 241423Z 34005KT 17/16 A3001 RMK A01 T01660159  RH  096%=      5-min Rain = 0
KGO1 241424Z 34005KT 17/16 A3001 RMK A01 T01660158  RH  095%=      5-min Rain = 0
KGO1 241425Z 33005KT 17/16 A3001 RMK A01 T01660157  RH  094%=      5-min Rain = 0
KGO1 241426Z 31005KT 17/16 A3001 RMK A01 T01670161  RH  096%=      5-min Rain = 0
KGO1 241427Z 31005KT 17/16 A3001 RMK A01 T01680160  RH  095%=      5-min Rain = 0
KGO1 241428Z 31005KT 17/16 A3001 RMK A01 T01680159  RH  094%=      5-min Rain = 0
KGO1 241429Z 33005KT 17/16 A3001 RMK A01 T01680157  RH  093%=      5-min Rain = 0
KGO1 241430Z 34004KT 17/16 A3001 RMK A01 T01680160  RH  095%=      5-min Rain = 0
KGO1 241431Z 34004KT 17/16 A3001 RMK A01 T01680159  RH  094%=      5-min Rain = 0
KGO1 241432Z 35004KT 17/16 A3001 RMK A01 T01690159  RH  094%=      5-min Rain = 0
KGO1 241433Z 33003KT 17/16 A3001 RMK A01 T01690160  RH  094%=      5-min Rain = 0
KGO1 241434Z 32003KT 17/16 A3001 RMK A01 T01700161  RH  094%=      5-min Rain = 0
KGO1 241435Z 33002KT 17/16 A3001 RMK A01 T01700160  RH  094%=      5-min Rain = 0
KGO1 241436Z 30003KT 17/16 A3001 RMK A01 T01710161  RH  094%=      5-min Rain = 0
KGO1 241437Z 30002KT 17/16 A3001 RMK A01 T01710161  RH  093%=      5-min Rain = 0
KGO1 241438Z 30002KT 17/16 A3001 RMK A01 T01720161  RH  093%=      5-min Rain = 0
KGO1 241439Z 30002KT 17/16 A3001 RMK A01 T01720159  RH  092%=      5-min Rain = 0
KGO1 241440Z 29001KT 17/16 A3001 RMK A01 T01720160  RH  093%=      5-min Rain = 0
KGO1 241441Z 30000KT 17/16 A3001 RMK A01 T01720160  RH  092%=      5-min Rain = 0
KGO1 241442Z 33001KT 17/16 A3001 RMK A01 T01720159  RH  092%=      5-min Rain = 0
KGO1 241443Z 30001KT 17/16 A3001 RMK A01 T01730162  RH  093%=      5-min Rain = 0
KGO1 241444Z 31001KT 17/16 A3002 RMK A01 T01730161  RH  093%=      5-min Rain = 0
KGO1 241445Z 30001KT 17/16 A3001 RMK A01 T01730160  RH  092%=      5-min Rain = 0
KGO1 241446Z 31001KT 17/16 A3001 RMK A01 T01730158  RH  091%=      5-min Rain = 0
KGO1 241447Z 35001KT 17/16 A3001 RMK A01 T01720157  RH  091%=      5-min Rain = 0
KGO1 241448Z 00002KT 17/16 A3001 RMK A01 T01720158  RH  092%=      5-min Rain = 0
KGO1 241449Z 34001KT 17/16 A3001 RMK A01 T01710157  RH  092%=      5-min Rain = 0
KGO1 241450Z 34000KT 17/16 A3001 RMK A01 T01710158  RH  092%=      5-min Rain = 0
KGO1 241451Z 35000KT 17/16 A3002 RMK A01 T01700158  RH  092%=      5-min Rain = 0
KGO1 241452Z 01001KT 17/16 A3002 RMK A01 T01700158  RH  092%=      5-min Rain = 0
KGO1 241453Z 00000KT 17/16 A3002 RMK A01 T01700157  RH  092%=      5-min Rain = 0
KGO1 241454Z 33000KT 17/16 A3002 RMK A01 T01700156  RH  091%=      5-min Rain = 0
KGO1 241455Z 31000KT 17/16 A3002 RMK A01 T01700159  RH  093%=      5-min Rain = 0
KGO1 241456Z 34001KT 17/16 A3001 RMK A01 T01700158  RH  093%=      5-min Rain = 0
KGO1 241457Z 33002KT 17/16 A3001 RMK A01 T01700160  RH  094%=      5-min Rain = 0
KGO1 241458Z 34002KT 17/16 A3001 RMK A01 T01700161  RH  094%=      5-min Rain = 0
KGO1 241459Z 34002KT 17/16 A3001 RMK A01 T01710161  RH  094%=      5-min Rain = 0
KGO1 241500Z 34002KT 17/16 A3001 RMK A01 T01710161  RH  094%=      5-min Rain = 0
KGO1 241501Z 34003KT 17/16 A3001 RMK A01 T01710160  RH  093%=      5-min Rain = 0
KGO1 241502Z 32004KT 17/16 A3001 RMK A01 T01710160  RH  093%=      5-min Rain = 0
KGO1 241503Z 32004KT 17/16 A3001 RMK A01 T01710161  RH  093%=      5-min Rain = 0
KGO1 241504Z 31003KT 17/16 A3001 RMK A01 T01720160  RH  093%=      5-min Rain = 0
KGO1 241505Z 31003KT 17/16 A3001 RMK A01 T01720161  RH  093%=      5-min Rain = 0
KGO1 241506Z 31004KT 17/16 A3001 RMK A01 T01720161  RH  093%=      5-min Rain = 0
KGO1 241507Z 31003KT 17/16 A3001 RMK A01 T01720159  RH  092%=      5-min Rain = 0
KGO1 241508Z 31005KT 17/16 A3001 RMK A01 T01720162  RH  093%=      5-min Rain = 0
KGO1 241509Z 32004KT 17/16 A3001 RMK A01 T01720160  RH  093%=      5-min Rain = 0
KGO1 241510Z 32004KT 17/16 A3001 RMK A01 T01720162  RH  094%=      5-min Rain = 0
KGO1 241511Z 32004KT 17/16 A3001 RMK A01 T01720161  RH  093%=      5-min Rain = 0
KGO1 241512Z 31005KT 17/16 A3002 RMK A01 T01720161  RH  093%=      5-min Rain = 0
KGO1 241513Z 31004KT 17/16 A3002 RMK A01 T01720160  RH  092%=      5-min Rain = 0
KGO1 241514Z 33004KT 17/16 A3002 RMK A01 T01710160  RH  093%=      5-min Rain = 0
KGO1 241515Z 33004KT 17/16 A3002 RMK A01 T01720161  RH  093%=      5-min Rain = 0
KGO1 241516Z 31003KT 17/16 A3002 RMK A01 T01720160  RH  093%=      5-min Rain = 0
KGO1 241517Z 33003KT 17/16 A3002 RMK A01 T01710161  RH  094%=      5-min Rain = 0
KGO1 241518Z 33005KT 17/16 A3001 RMK A01 T01720162  RH  094%=      5-min Rain = 0
KGO1 241519Z 34005KT 17/16 A3001 RMK A01 T01720160  RH  093%=      5-min Rain = 0
KGO1 241520Z 33004KT 17/16 A3001 RMK A01 T01720160  RH  093%=      5-min Rain = 0
KGO1 241521Z 32004KT 17/16 A3001 RMK A01 T01730164  RH  095%=      5-min Rain = 0
KGO1 241522Z 32005KT 17/16 A3001 RMK A01 T01740163  RH  093%=      5-min Rain = 0
KGO1 241523Z 32004KT 17/16 A3001 RMK A01 T01740163  RH  093%=      5-min Rain = 0
KGO1 241524Z 32005KT 18/16 A3001 RMK A01 T01750164  RH  093%=      5-min Rain = 0
KGO1 241525Z 32004KT 18/16 A3001 RMK A01 T01750162  RH  092%=      5-min Rain = 0
KGO1 241526Z 34005KT 18/16 A3001 RMK A01 T01750163  RH  093%=      5-min Rain = 0
KGO1 241527Z 34006KT 18/16 A3001 RMK A01 T01750162  RH  092%=      5-min Rain = 0
KGO1 241528Z 32005KT 18/16 A3001 RMK A01 T01760164  RH  093%=      5-min Rain = 0
KGO1 241529Z 32004KT 18/17 A3001 RMK A01 T01780167  RH  093%=      5-min Rain = 0
KGO1 241530Z 30004KT 18/17 A3001 RMK A01 T01800169  RH  093%=      5-min Rain = 0
KGO1 241531Z 30004KT 18/17 A3001 RMK A01 T01830173  RH  094%=      5-min Rain = 0
KGO1 241532Z 31005KT 18/17 A3001 RMK A01 T01840169  RH  091%=      5-min Rain = 0
KGO1 241533Z 30005KT 18/17 A3001 RMK A01 T01840166  RH  089%=      5-min Rain = 0
KGO1 241534Z 31004KT 18/17 A3001 RMK A01 T01830167  RH  090%=      5-min Rain = 0
KGO1 241535Z 31005KT 18/17 A3001 RMK A01 T01830169  RH  091%=      5-min Rain = 0
KGO1 241536Z 30004KT 18/17 A3001 RMK A01 T01830166  RH  090%=      5-min Rain = 0
KGO1 241537Z 31004KT 18/16 A3002 RMK A01 T01830164  RH  089%=      5-min Rain = 0
KGO1 241538Z 30005KT 18/17 A3002 RMK A01 T01820165  RH  090%=      5-min Rain = 0
KGO1 241539Z 29004KT 18/16 A3002 RMK A01 T01820164  RH  089%=      5-min Rain = 0
KGO1 241540Z 30004KT 18/17 A3002 RMK A01 T01820166  RH  090%=      5-min Rain = 0
KGO1 241541Z 29004KT 18/17 A3002 RMK A01 T01820166  RH  090%=      5-min Rain = 0
KGO1 241542Z 30004KT 18/17 A3002 RMK A01 T01820166  RH  091%=      5-min Rain = 0
KGO1 241543Z 30003KT 18/16 A3002 RMK A01 T01810164  RH  089%=      5-min Rain = 0
KGO1 241544Z 31004KT 18/16 A3001 RMK A01 T01800163  RH  090%=      5-min Rain = 0
KGO1 241545Z 31004KT 18/17 A3001 RMK A01 T01800165  RH  091%=      5-min Rain = 0
KGO1 241546Z 31004KT 18/16 A3001 RMK A01 T01800164  RH  091%=      5-min Rain = 0
KGO1 241547Z 32004KT 18/16 A3001 RMK A01 T01800164  RH  090%=      5-min Rain = 0
KGO1 241548Z 32005KT 18/16 A3001 RMK A01 T01800164  RH  091%=      5-min Rain = 0
KGO1 241549Z 32004KT 18/16 A3001 RMK A01 T01790164  RH  091%=      5-min Rain = 0
KGO1 241550Z 33005KT 18/17 A3001 RMK A01 T01790167  RH  092%=      5-min Rain = 0
KGO1 241551Z 33005KT 18/17 A3001 RMK A01 T01800167  RH  092%=      5-min Rain = 0
KGO1 241552Z 32005KT 18/17 A3001 RMK A01 T01810169  RH  093%=      5-min Rain = 0
KGO1 241553Z 32005KT 18/17 A3001 RMK A01 T01820167  RH  091%=      5-min Rain = 0
KGO1 241554Z 31004KT 18/17 A3001 RMK A01 T01810168  RH  092%=      5-min Rain = 0
KGO1 241555Z 31004KT 18/17 A3001 RMK A01 T01820165  RH  090%=      5-min Rain = 0
KGO1 241556Z 32003KT 18/17 A3001 RMK A01 T01810165  RH  090%=      5-min Rain = 0
KGO1 241557Z 31003KT 18/17 A3001 RMK A01 T01810165  RH  091%=      5-min Rain = 0
KGO1 241558Z 33004KT 18/17 A3001 RMK A01 T01800165  RH  091%=      5-min Rain = 0
KGO1 241559Z 32004KT 18/17 A3002 RMK A01 T01800167  RH  092%=      5-min Rain = 0
KGO1 241600Z 31003KT 18/17 A3002 RMK A01 T01800166  RH  092%=      5-min Rain = 0
KGO1 241601Z 31003KT 18/17 A3002 RMK A01 T01800165  RH  091%=      5-min Rain = 0
KGO1 241602Z 33002KT 18/17 A3002 RMK A01 T01800167  RH  092%=      5-min Rain = 0
KGO1 241603Z 33002KT 18/17 A3002 RMK A01 T01810169  RH  092%=      5-min Rain = 0
KGO1 241604Z 32002KT 18/17 A3002 RMK A01 T01820168  RH  091%=      5-min Rain = 0
KGO1 241605Z 33002KT 18/17 A3002 RMK A01 T01820167  RH  091%=      5-min Rain = 0
KGO1 241606Z 33002KT 18/17 A3002 RMK A01 T01820166  RH  090%=      5-min Rain = 0
KGO1 241607Z 31002KT 18/17 A3002 RMK A01 T01830169  RH  091%=      5-min Rain = 0
KGO1 241608Z 30002KT 18/17 A3002 RMK A01 T01830168  RH  091%=      5-min Rain = 0
KGO1 241609Z 29002KT 18/17 A3002 RMK A01 T01840169  RH  091%=      5-min Rain = 0
KGO1 241610Z 29001KT 19/17 A3002 RMK A01 T01850167  RH  089%=      5-min Rain = 0
KGO1 241611Z 31001KT 19/17 A3002 RMK A01 T01850171  RH  091%=      5-min Rain = 0
KGO1 241612Z 33001KT 19/17 A3002 RMK A01 T01860173  RH  092%=      5-min Rain = 0
KGO1 241613Z 31001KT 19/17 A3002 RMK A01 T01870170  RH  090%=      5-min Rain = 0
KGO1 241614Z 29001KT 19/17 A3002 RMK A01 T01870169  RH  089%=      5-min Rain = 0
KGO1 241615Z 27001KT 19/17 A3002 RMK A01 T01880172  RH  090%=      5-min Rain = 0
KGO1 241616Z 28002KT 19/17 A3002 RMK A01 T01870167  RH  088%=      5-min Rain = 0
KGO1 241617Z 27002KT 19/17 A3002 RMK A01 T01880167  RH  088%=      5-min Rain = 0
KGO1 241618Z 32001KT 19/17 A3002 RMK A01 T01870168  RH  088%=      5-min Rain = 0
KGO1 241619Z 33002KT 19/17 A3002 RMK A01 T01880170  RH  089%=      5-min Rain = 0
KGO1 241620Z 34002KT 19/17 A3002 RMK A01 T01880169  RH  088%=      5-min Rain = 0
KGO1 241621Z 35001KT 19/17 A3002 RMK A01 T01880165  RH  087%=      5-min Rain = 0
KGO1 241622Z 00000KT 19/17 A3002 RMK A01 T01890171  RH  089%=      5-min Rain = 0
KGO1 241623Z 00000KT 19/17 A3002 RMK A01 T01890167  RH  087%=      5-min Rain = 0
KGO1 241624Z 32000KT 19/17 A3002 RMK A01 T01890168  RH  087%=      5-min Rain = 0
KGO1 241625Z 33001KT 19/17 A3002 RMK A01 T01900170  RH  088%=      5-min Rain = 0
KGO1 241626Z 31001KT 19/17 A3001 RMK A01 T01900166  RH  086%=      5-min Rain = 0
KGO1 241627Z 28000KT 19/17 A3001 RMK A01 T01900169  RH  088%=      5-min Rain = 0
KGO1 241628Z 28001KT 19/17 A3001 RMK A01 T01910167  RH  086%=      5-min Rain = 0
KGO1 241629Z 28002KT 19/17 A3001 RMK A01 T01920173  RH  089%=      5-min Rain = 0
KGO1 241630Z 29002KT 19/17 A3001 RMK A01 T01940170  RH  086%=      5-min Rain = 0
KGO1 241631Z 30001KT 19/17 A3001 RMK A01 T01940168  RH  085%=      5-min Rain = 0
KGO1 241632Z 31001KT 20/17 A3001 RMK A01 T01950170  RH  086%=      5-min Rain = 0
KGO1 241633Z 25000KT 20/18 A3001 RMK A01 T01960175  RH  088%=      5-min Rain = 0
KGO1 241634Z 16002KT 20/17 A3001 RMK A01 T01960172  RH  086%=      5-min Rain = 0
KGO1 241635Z 15003KT 20/17 A3001 RMK A01 T01970169  RH  084%=      5-min Rain = 0
KGO1 241636Z 16002KT 20/17 A3001 RMK A01 T01950167  RH  084%=      5-min Rain = 0
KGO1 241637Z 18002KT 19/17 A3001 RMK A01 T01940170  RH  086%=      5-min Rain = 0
KGO1 241638Z 18002KT 19/17 A3001 RMK A01 T01940168  RH  085%=      5-min Rain = 0
KGO1 241639Z 18001KT 19/17 A3001 RMK A01 T01930168  RH  085%=      5-min Rain = 0
KGO1 241640Z 20000KT 19/17 A3001 RMK A01 T01920167  RH  085%=      5-min Rain = 0
KGO1 241641Z 20000KT 19/17 A3002 RMK A01 T01920167  RH  086%=      5-min Rain = 0
KGO1 241642Z 22000KT 19/17 A3002 RMK A01 T01920167  RH  085%=      5-min Rain = 0
KGO1 241643Z 25001KT 19/17 A3002 RMK A01 T01920168  RH  086%=      5-min Rain = 0
KGO1 241644Z 24000KT 19/17 A3002 RMK A01 T01920167  RH  085%=      5-min Rain = 0
KGO1 241645Z 28000KT 19/17 A3002 RMK A01 T01930168  RH  086%=      5-min Rain = 0
KGO1 241646Z 30001KT 19/17 A3002 RMK A01 T01940173  RH  087%=      5-min Rain = 0
KGO1 241647Z 33002KT 20/17 A3002 RMK A01 T01950172  RH  086%=      5-min Rain = 0
KGO1 241648Z 35002KT 20/18 A3002 RMK A01 T01960177  RH  089%=      5-min Rain = 0
KGO1 241649Z 01002KT 20/18 A3002 RMK A01 T01960175  RH  088%=      5-min Rain = 0
KGO1 241650Z 04001KT 20/17 A3002 RMK A01 T01960174  RH  087%=      5-min Rain = 0
KGO1 241651Z 00000KT 20/18 A3002 RMK A01 T01970176  RH  088%=      5-min Rain = 0
KGO1 241652Z 00000KT 20/18 A3002 RMK A01 T01970179  RH  089%=      5-min Rain = 0
KGO1 241653Z 00000KT 20/17 A3002 RMK A01 T01980170  RH  084%=      5-min Rain = 0
KGO1 241654Z 00000KT 20/17 A3002 RMK A01 T01990173  RH  085%=      5-min Rain = 0
KGO1 241655Z 00000KT 20/17 A3002 RMK A01 T01990173  RH  085%=      5-min Rain = 0
KGO1 241656Z 21002KT 20/18 A3002 RMK A01 T02000175  RH  085%=      5-min Rain = 0
KGO1 241657Z 21003KT 20/17 A3002 RMK A01 T02000173  RH  084%=      5-min Rain = 0
KGO1 241658Z 22003KT 20/17 A3002 RMK A01 T01990172  RH  084%=      5-min Rain = 0
KGO1 241659Z 23003KT 20/17 A3002 RMK A01 T01990172  RH  085%=      5-min Rain = 0
KGO1 241700Z 23003KT 20/17 A3002 RMK A01 T01980170  RH  084%=      5-min Rain = 0
KGO1 241701Z 24002KT 20/17 A3002 RMK A01 T01970170  RH  084%=      5-min Rain = 0
KGO1 241702Z 21003KT 20/17 A3002 RMK A01 T01970171  RH  085%=      5-min Rain = 0
KGO1 241703Z 21003KT 20/17 A3002 RMK A01 T01970174  RH  086%=      5-min Rain = 0
KGO1 241704Z 21002KT 20/17 A3002 RMK A01 T01980172  RH  085%=      5-min Rain = 0
KGO1 241705Z 22001KT 20/17 A3002 RMK A01 T01980172  RH  085%=      5-min Rain = 0
KGO1 241706Z 18002KT 20/17 A3002 RMK A01 T01980170  RH  084%=      5-min Rain = 0
KGO1 241707Z 18002KT 20/17 A3002 RMK A01 T01980171  RH  084%=      5-min Rain = 0
KGO1 241708Z 18001KT 20/17 A3002 RMK A01 T01980171  RH  084%=      5-min Rain = 0
KGO1 241709Z 17001KT 20/17 A3002 RMK A01 T01990170  RH  083%=      5-min Rain = 0
KGO1 241710Z 18002KT 20/17 A3002 RMK A01 T02000173  RH  084%=      5-min Rain = 0
KGO1 241711Z 21001KT 20/17 A3002 RMK A01 T02000172  RH  084%=      5-min Rain = 0
KGO1 241712Z 19003KT 20/17 A3002 RMK A01 T02010172  RH  084%=      5-min Rain = 0
KGO1 241713Z 19003KT 20/18 A3002 RMK A01 T02010175  RH  085%=      5-min Rain = 0
KGO1 241714Z 18002KT 20/17 A3002 RMK A01 T02000169  RH  082%=      5-min Rain = 0
KGO1 241715Z 16002KT 20/17 A3002 RMK A01 T02000173  RH  085%=      5-min Rain = 0
KGO1 241716Z 17001KT 20/17 A3002 RMK A01 T01990169  RH  083%=      5-min Rain = 0
KGO1 241717Z 20001KT 20/17 A3002 RMK A01 T01980169  RH  083%=      5-min Rain = 0
KGO1 241718Z 23001KT 20/17 A3002 RMK A01 T01980171  RH  084%=      5-min Rain = 0
KGO1 241719Z 25001KT 20/17 A3002 RMK A01 T01980173  RH  086%=      5-min Rain = 0
KGO1 241720Z 24000KT 20/17 A3002 RMK A01 T01990174  RH  085%=      5-min Rain = 0
KGO1 241721Z 26001KT 20/17 A3002 RMK A01 T02010173  RH  084%=      5-min Rain = 0
KGO1 241722Z 26001KT 20/17 A3002 RMK A01 T02010173  RH  084%=      5-min Rain = 0
KGO1 241723Z 25000KT 20/17 A3002 RMK A01 T02020172  RH  083%=      5-min Rain = 0
KGO1 241724Z 22000KT 20/17 A3002 RMK A01 T02020174  RH  084%=      5-min Rain = 0
KGO1 241725Z 20003KT 20/18 A3002 RMK A01 T02020175  RH  085%=      5-min Rain = 0
KGO1 241726Z 19002KT 20/18 A3002 RMK A01 T02020175  RH  085%=      5-min Rain = 0
KGO1 241727Z 18001KT 20/17 A3001 RMK A01 T02020174  RH  084%=      5-min Rain = 0
KGO1 241728Z 18002KT 20/18 A3001 RMK A01 T02010177  RH  086%=      5-min Rain = 0
KGO1 241729Z 19001KT 20/18 A3001 RMK A01 T02020177  RH  085%=      5-min Rain = 0
KGO1 241730Z 17002KT 20/18 A3001 RMK A01 T02030179  RH  086%=      5-min Rain = 0
KGO1 241731Z 17003KT 20/18 A3001 RMK A01 T02030178  RH  085%=      5-min Rain = 0
KGO1 241732Z 18003KT 20/18 A3002 RMK A01 T02030180  RH  086%=      5-min Rain = 0
KGO1 241733Z 18003KT 20/18 A3002 RMK A01 T02030180  RH  087%=      5-min Rain = 0
KGO1 241734Z 16002KT 20/18 A3002 RMK A01 T02040181  RH  087%=      5-min Rain = 0
KGO1 241735Z 17003KT 21/18 A3001 RMK A01 T02050182  RH  087%=      5-min Rain = 0
KGO1 241736Z 18002KT 21/18 A3001 RMK A01 T02050178  RH  084%=      5-min Rain = 0
KGO1 241737Z 17001KT 21/19 A3001 RMK A01 T02050185  RH  088%=      5-min Rain = 0
KGO1 241738Z 18001KT 21/18 A3002 RMK A01 T02060181  RH  085%=      5-min Rain = 0
KGO1 241739Z 19002KT 21/18 A3002 RMK A01 T02060184  RH  087%=      5-min Rain = 0
KGO1 241740Z 19003KT 21/18 A3002 RMK A01 T02070179  RH  084%=      5-min Rain = 0
KGO1 241741Z 19002KT 21/18 A3001 RMK A01 T02060177  RH  084%=      5-min Rain = 0
KGO1 241742Z 18002KT 21/18 A3001 RMK A01 T02060182  RH  086%=      5-min Rain = 0
KGO1 241743Z 14002KT 21/18 A3001 RMK A01 T02060183  RH  087%=      5-min Rain = 0
KGO1 241744Z 15004KT 21/19 A3001 RMK A01 T02070185  RH  087%=      5-min Rain = 0
KGO1 241745Z 15004KT 21/18 A3001 RMK A01 T02070182  RH  085%=      5-min Rain = 0
KGO1 241746Z 17002KT 21/18 A3001 RMK A01 T02070184  RH  087%=      5-min Rain = 0
KGO1 241747Z 14002KT 21/18 A3001 RMK A01 T02060181  RH  085%=      5-min Rain = 0
KGO1 241748Z 14003KT 21/18 A3001 RMK A01 T02050179  RH  085%=      5-min Rain = 0
KGO1 241749Z 13003KT 21/18 A3001 RMK A01 T02050183  RH  087%=      5-min Rain = 0
KGO1 241750Z 12004KT 20/19 A3001 RMK A01 T02040185  RH  088%=      5-min Rain = 0
KGO1 241751Z 12003KT 21/18 A3001 RMK A01 T02050182  RH  087%=      5-min Rain = 0
KGO1 241752Z 11003KT 21/18 A3001 RMK A01 T02050182  RH  087%=      5-min Rain = 0
KGO1 241753Z 12003KT 21/18 A3001 RMK A01 T02050184  RH  088%=      5-min Rain = 0
KGO1 241754Z 11002KT 21/18 A3001 RMK A01 T02050183  RH  087%=      5-min Rain = 0
KGO1 241755Z 13002KT 21/18 A3001 RMK A01 T02050183  RH  087%=      5-min Rain = 0
KGO1 241756Z 18002KT 21/18 A3001 RMK A01 T02050180  RH  086%=      5-min Rain = 0
KGO1 241757Z 18002KT 21/18 A3001 RMK A01 T02050182  RH  086%=      5-min Rain = 0
KGO1 241758Z 19004KT 21/19 A3001 RMK A01 T02050187  RH  089%=      5-min Rain = 0
KGO1 241759Z 18005KT 21/18 A3001 RMK A01 T02060183  RH  087%=      5-min Rain = 0
KGO1 241800Z 16003KT 21/18 A3001 RMK A01 T02050183  RH  087%=      5-min Rain = 0
KGO1 241801Z 17004KT 21/19 A3001 RMK A01 T02050185  RH  088%=      5-min Rain = 0
KGO1 241802Z 16004KT 21/19 A3001 RMK A01 T02060186  RH  088%=      5-min Rain = 0
KGO1 241803Z 17003KT 21/19 A3001 RMK A01 T02060188  RH  090%=      5-min Rain = 0
KGO1 241804Z 17002KT 21/19 A3001 RMK A01 T02070188  RH  089%=      5-min Rain = 0
KGO1 241805Z 17001KT 21/18 A3001 RMK A01 T02070184  RH  086%=      5-min Rain = 0
KGO1 241806Z 16003KT 21/18 A3001 RMK A01 T02070184  RH  087%=      5-min Rain = 0
KGO1 241807Z 17003KT 21/18 A3001 RMK A01 T02070183  RH  086%=      5-min Rain = 0
KGO1 241808Z 17003KT 21/18 A3001 RMK A01 T02070184  RH  087%=      5-min Rain = 0
KGO1 241809Z 18003KT 21/18 A3001 RMK A01 T02060183  RH  087%=      5-min Rain = 0
KGO1 241810Z 18003KT 21/18 A3001 RMK A01 T02060183  RH  087%=      5-min Rain = 0
KGO1 241811Z 16002KT 21/18 A3001 RMK A01 T02050184  RH  087%=      5-min Rain = 0
KGO1 241812Z 20003KT 21/19 A3001 RMK A01 T02050186  RH  089%=      5-min Rain = 0
KGO1 241813Z 22003KT 21/18 A3001 RMK A01 T02050183  RH  087%=      5-min Rain = 0
KGO1 241814Z 21003KT 21/18 A3001 RMK A01 T02050184  RH  088%=      5-min Rain = 0
KGO1 241815Z 21002KT 21/18 A3001 RMK A01 T02050184  RH  088%=      5-min Rain = 0
KGO1 241816Z 22003KT 21/19 A3001 RMK A01 T02050186  RH  089%=      5-min Rain = 0
KGO1 241817Z 22002KT 21/19 A3001 RMK A01 T02050189  RH  090%=      5-min Rain = 0
KGO1 241818Z 24001KT 21/18 A3001 RMK A01 T02060184  RH  087%=      5-min Rain = 0
KGO1 241819Z 22001KT 21/19 A30 RMK A01 T02060185  RH  088%=      5-min Rain = 0
KGO1 241820Z 19002KT 21/19 A30 RMK A01 T02070186  RH  087%=      5-min Rain = 0
KGO1 241821Z 19003KT 21/18 A30 RMK A01 T02080184  RH  086%=      5-min Rain = 0
KGO1 241822Z 18003KT 21/19 A30 RMK A01 T02090185  RH  086%=      5-min Rain = 0
KGO1 241823Z 19002KT 21/19 A30 RMK A01 T02090185  RH  086%=      5-min Rain = 0
KGO1 241824Z 16003KT 21/19 A30 RMK A01 T02090189  RH  089%=      5-min Rain = 0
KGO1 241825Z 20003KT 21/19 A30 RMK A01 T02090186  RH  087%=      5-min Rain = 0
KGO1 241826Z 22002KT 21/18 A30 RMK A01 T02090184  RH  086%=      5-min Rain = 0
KGO1 241827Z 18002KT 21/19 A30 RMK A01 T02080188  RH  088%=      5-min Rain = 0
KGO1 241828Z 17004KT 21/19 A30 RMK A01 T02080187  RH  088%=      5-min Rain = 0
KGO1 241829Z 16004KT 21/19 A30 RMK A01 T02070185  RH  087%=      5-min Rain = 0
KGO1 241830Z 18004KT 21/19 A30 RMK A01 T02060185  RH  088%=      5-min Rain = 0
KGO1 241831Z 18004KT 21/18 A30 RMK A01 T02050184  RH  087%=      5-min Rain = 0
KGO1 241832Z 17003KT 21/18 A30 RMK A01 T02050184  RH  088%=      5-min Rain = 0
KGO1 241833Z 15003KT 20/19 A30 RMK A01 T02040186  RH  089%=      5-min Rain = 0
KGO1 241834Z 14002KT 20/19 A30 RMK A01 T02040186  RH  089%=      5-min Rain = 0
KGO1 241835Z 14001KT 21/19 A30 RMK A01 T02060186  RH  088%=      5-min Rain = 0
KGO1 241836Z 16002KT 21/19 A30 RMK A01 T02070191  RH  090%=      5-min Rain = 0
KGO1 241837Z 16004KT 21/19 A30 RMK A01 T02090189  RH  088%=      5-min Rain = 0
KGO1 241838Z 17004KT 21/19 A30 RMK A01 T02100187  RH  087%=      5-min Rain = 0
KGO1 241839Z 15004KT 21/19 A30 RMK A01 T02100187  RH  087%=      5-min Rain = 0
KGO1 241840Z 16003KT 21/19 A30 RMK A01 T02090186  RH  086%=      5-min Rain = 0
KGO1 241841Z 15003KT 21/19 A30 RMK A01 T02090190  RH  089%=      5-min Rain = 0
KGO1 241842Z 14004KT 21/19 A30 RMK A01 T02100189  RH  088%=      5-min Rain = 0
KGO1 241843Z 14003KT 21/19 A30 RMK A01 T02110189  RH  088%=      5-min Rain = 0
KGO1 241844Z 15004KT 21/19 A30 RMK A01 T02100189  RH  088%=      5-min Rain = 0
KGO1 241845Z 16004KT 21/19 A30 RMK A01 T02110190  RH  088%=      5-min Rain = 0
KGO1 241846Z 18004KT 21/19 A30 RMK A01 T02120193  RH  089%=      5-min Rain = 0
KGO1 241847Z 17002KT 21/19 A2999 RMK A01 T02130191  RH  088%=      5-min Rain = 0
KGO1 241848Z 17004KT 21/19 A2999 RMK A01 T02130190  RH  087%=      5-min Rain = 0
KGO1 241849Z 15003KT 21/19 A2999 RMK A01 T02130188  RH  086%=      5-min Rain = 0
KGO1 241850Z 16003KT 21/19 A2999 RMK A01 T02110186  RH  086%=      5-min Rain = 0
KGO1 241851Z 16003KT 21/19 A2999 RMK A01 T02100185  RH  086%=      5-min Rain = 0
KGO1 241852Z 19003KT 21/19 A2999 RMK A01 T02090185  RH  086%=      5-min Rain = 0
KGO1 241853Z 19002KT 21/19 A2999 RMK A01 T02070185  RH  087%=      5-min Rain = 0
KGO1 241854Z 19000KT 21/18 A2999 RMK A01 T02060184  RH  087%=      5-min Rain = 0
KGO1 241855Z 20000KT 21/18 A2999 RMK A01 T02060184  RH  088%=      5-min Rain = 0
KGO1 241856Z 17002KT 21/19 A2999 RMK A01 T02060187  RH  089%=      5-min Rain = 0
KGO1 241857Z 11003KT 21/19 A2999 RMK A01 T02070189  RH  089%=      5-min Rain = 0
KGO1 241858Z 12003KT 21/19 A2999 RMK A01 T02070189  RH  090%=      5-min Rain = 0
KGO1 241859Z 13004KT 21/19 A2999 RMK A01 T02080189  RH  089%=      5-min Rain = 0
KGO1 241900Z 13004KT 21/19 A2999 RMK A01 T02080188  RH  089%=      5-min Rain = 0
KGO1 241901Z 14003KT 21/19 A2999 RMK A01 T02070188  RH  088%=      5-min Rain = 0
KGO1 241902Z 15001KT 21/19 A2999 RMK A01 T02070190  RH  090%=      5-min Rain = 0
KGO1 241903Z 12002KT 21/19 A2999 RMK A01 T02080189  RH  089%=      5-min Rain = 0
KGO1 241904Z 13004KT 21/19 A2999 RMK A01 T02080190  RH  089%=      5-min Rain = 0
KGO1 241905Z 10004KT 21/19 A2999 RMK A01 T02080190  RH  089%=      5-min Rain = 0
KGO1 241906Z 10005KT 21/19 A2999 RMK A01 T02080190  RH  089%=      5-min Rain = 0
KGO1 241907Z 10004KT 21/19 A2999 RMK A01 T02080191  RH  090%=      5-min Rain = 0
KGO1 241908Z 12006KT 21/19 A2999 RMK A01 T02080190  RH  090%=      5-min Rain = 0
KGO1 241909Z 11005KT 21/19 A2999 RMK A01 T02070190  RH  090%=      5-min Rain = 0
KGO1 241910Z 11004KT 21/19 A2998 RMK A01 T02060190  RH  091%=      5-min Rain = 0
KGO1 241911Z 11005KT 21/19 A2998 RMK A01 T02050190  RH  091%=      5-min Rain = 0
KGO1 241912Z 10005KT 21/19 A2998 RMK A01 T02050191  RH  092%=      5-min Rain = 0
KGO1 241913Z 09004KT 21/19 A2998 RMK A01 T02050191  RH  091%=      5-min Rain = 0
KGO1 241914Z 09006KT 21/19 A2998 RMK A01 T02050192  RH  092%=      5-min Rain = 0
KGO1 241915Z 11006KT 21/19 A2998 RMK A01 T02050190  RH  091%=      5-min Rain = 0
KGO1 241916Z 11005KT 21/19 A2998 RMK A01 T02050190  RH  091%=      5-min Rain = 0
KGO1 241917Z 11007KT 21/19 A2999 RMK A01 T02050191  RH  092%=      5-min Rain = 0
KGO1 241918Z 11006KT 21/19 A2999 RMK A01 T02060192  RH  092%=      5-min Rain = 0
KGO1 241919Z 11005KT 21/19 A2999 RMK A01 T02060191  RH  091%=      5-min Rain = 0
KGO1 241920Z 10004KT 21/19 A2998 RMK A01 T02060191  RH  091%=      5-min Rain = 0
KGO1 241921Z 10006KT 21/19 A2998 RMK A01 T02060191  RH  091%=      5-min Rain = 0
KGO1 241922Z 10005KT 21/19 A2998 RMK A01 T02070194  RH  093%=      5-min Rain = 0
KGO1 241923Z 10005KT 21/19 A2998 RMK A01 T02070192  RH  091%=      5-min Rain = 0
KGO1 241924Z 10005KT 21/19 A2999 RMK A01 T02070192  RH  091%=      5-min Rain = 0
KGO1 241925Z 11005KT 21/20 A2999 RMK A01 T02070195  RH  092%=      5-min Rain = 0
KGO1 241926Z 12006KT 21/19 A2999 RMK A01 T02080194  RH  092%=      5-min Rain = 0
KGO1 241927Z 12006KT 21/19 A2999 RMK A01 T02070193  RH  092%=      5-min Rain = 0
KGO1 241928Z 15006KT 21/20 A2999 RMK A01 T02080195  RH  092%=      5-min Rain = 0
KGO1 241929Z 13006KT 21/19 A2999 RMK A01 T02080193  RH  091%=      5-min Rain = 0
KGO1 241930Z 12007KT 21/19 A2999 RMK A01 T02080193  RH  091%=      5-min Rain = 0
KGO1 241931Z 11007KT 21/19 A2999 RMK A01 T02080193  RH  091%=      5-min Rain = 0
KGO1 241932Z 11005KT 21/19 A2999 RMK A01 T02070194  RH  092%=      5-min Rain = 0
KGO1 241933Z 12006KT 21/20 A2999 RMK A01 T02070197  RH  093%=      5-min Rain = 0
KGO1 241934Z 11007KT 21/20 A2998 RMK A01 T02070195  RH  093%=      5-min Rain = 0
KGO1 241935Z 10006KT 21/19 A2998 RMK A01 T02060193  RH  092%=      5-min Rain = 0
KGO1 241936Z 10006KT 21/19 A2998 RMK A01 T02050194  RH  093%=      5-min Rain = 0
KGO1 241937Z 10006KT 20/19 A2998 RMK A01 T02040193  RH  093%=      5-min Rain = 0
KGO1 241938Z 11006KT 20/19 A2998 RMK A01 T02040192  RH  093%=      5-min Rain = 0
KGO1 241939Z 10007KT 20/19 A2998 RMK A01 T02040193  RH  094%=      5-min Rain = 0
KGO1 241940Z 11007KT 20/19 A2998 RMK A01 T02030193  RH  094%=      5-min Rain = 0
KGO1 241941Z 11007KT 20/19 A2998 RMK A01 T02030194  RH  095%=      5-min Rain = 0
KGO1 241942Z 10006KT 20/19 A2998 RMK A01 T02030193  RH  094%=      5-min Rain = 0
KGO1 241943Z 10005KT 20/19 A2998 RMK A01 T02020194  RH  095%=      5-min Rain = 0
KGO1 241944Z 10006KT 20/19 A2998 RMK A01 T02020193  RH  094%=      5-min Rain = 0
KGO1 241945Z 11006KT 20/19 A2998 RMK A01 T02020193  RH  094%=      5-min Rain = 0
KGO1 241946Z 10005KT 20/20 A2998 RMK A01 T02020195  RH  095%=      5-min Rain = 0
KGO1 241947Z 11006KT 20/19 A2998 RMK A01 T02020193  RH  094%=      5-min Rain = 0
KGO1 241948Z 11006KT 20/19 A2998 RMK A01 T02030194  RH  095%=      5-min Rain = 0
KGO1 241949Z 11005KT 20/20 A2999 RMK A01 T02020196  RH  096%=      5-min Rain = 0
KGO1 241950Z 11007KT 20/20 A2999 RMK A01 T02030196  RH  096%=      5-min Rain = 0
KGO1 241951Z 11007KT 20/20 A2999 RMK A01 T02030195  RH  095%=      5-min Rain = 0
KGO1 241952Z 11006KT 20/19 A2998 RMK A01 T02020194  RH  095%=      5-min Rain = 0
KGO1 241953Z 10006KT 20/19 A2998 RMK A01 T02020193  RH  095%=      5-min Rain = 0
KGO1 241954Z 10006KT 20/19 A2998 RMK A01 T02020194  RH  095%=      5-min Rain = 0
KGO1 241955Z 10007KT 20/20 A2998 RMK A01 T02020195  RH  096%=      5-min Rain = 0
KGO1 241956Z 10006KT 20/19 A2998 RMK A01 T02020194  RH  095%=      5-min Rain = 0
KGO1 241957Z 11006KT 20/19 A2998 RMK A01 T02020194  RH  096%=      5-min Rain = 0
KGO1 241958Z 10006KT 20/20 A2998 RMK A01 T02020195  RH  096%=      5-min Rain = 0
KGO1 241959Z 10007KT 20/19 A2997 RMK A01 T02020194  RH  096%=      5-min Rain = 0
KGO1 242000Z 10005KT 20/20 A2997 RMK A01 T02020195  RH  096%=      5-min Rain = 0
KGO1 242001Z 11006KT 20/20 A2997 RMK A01 T02020195  RH  096%=      5-min Rain = 0
KGO1 242002Z 12006KT 20/19 A2997 RMK A01 T02020194  RH  096%=      5-min Rain = 0
KGO1 242003Z 12005KT 20/19 A2997 RMK A01 T02010194  RH  095%=      5-min Rain = 0
KGO1 242004Z 12005KT 20/19 A2997 RMK A01 T02010194  RH  096%=      5-min Rain = 0
KGO1 242005Z 12005KT 20/19 A2997 RMK A01 T02010194  RH  096%=      5-min Rain = 0
KGO1 242006Z 12006KT 20/19 A2997 RMK A01 T02010194  RH  096%=      5-min Rain = 0
KGO1 242007Z 11005KT 20/19 A2997 RMK A01 T02000193  RH  096%=      5-min Rain = 0
KGO1 242008Z 11005KT 20/19 A2997 RMK A01 T02000194  RH  096%=      5-min Rain = 0
KGO1 242009Z 10005KT 20/19 A2997 RMK A01 T02000194  RH  096%=      5-min Rain = 0
KGO1 242010Z 10006KT 20/20 A2996 RMK A01 T02000195  RH  097%=      5-min Rain = 0
KGO1 242011Z 09006KT 20/19 A2996 RMK A01 T02000194  RH  096%=      5-min Rain = 0
KGO1 242012Z 09006KT 20/19 A2996 RMK A01 T01990193  RH  097%=      5-min Rain = 0
KGO1 242013Z 10006KT 20/19 A2997 RMK A01 T01990194  RH  097%=      5-min Rain = 0
KGO1 242014Z 10005KT 20/19 A2997 RMK A01 T01980194  RH  097%=      5-min Rain = 0
KGO1 242015Z 10005KT 20/19 A2997 RMK A01 T01980194  RH  098%=      5-min Rain = 0
KGO1 242016Z 09005KT 20/20 A2996 RMK A01 T01980195  RH  098%=      5-min Rain = 0
KGO1 242017Z 09005KT 20/19 A2996 RMK A01 T01980194  RH  098%=      5-min Rain = 0
KGO1 242018Z 09005KT 20/19 A2996 RMK A01 T01980194  RH  098%=      5-min Rain = 0
KGO1 242019Z 10006KT 20/19 A2996 RMK A01 T01970194  RH  098%=      5-min Rain = 0
KGO1 242020Z 10006KT 20/19 A2997 RMK A01 T01970194  RH  098%=      5-min Rain = 0
KGO1 242021Z 10006KT 20/19 A2997 RMK A01 T01970194  RH  098%=      5-min Rain = 0
KGO1 242022Z 10006KT 20/19 A2996 RMK A01 T01970194  RH  098%=      5-min Rain = 0
KGO1 242023Z 09005KT 20/19 A2996 RMK A01 T01970194  RH  099%=      5-min Rain = 0
KGO1 242024Z 09007KT 20/19 A2997 RMK A01 T01970194  RH  099%=      5-min Rain = 0
KGO1 242025Z 09007KT 20/19 A2997 RMK A01 T01970194  RH  098%=      5-min Rain = 0
KGO1 242026Z 09007KT 20/19 A2997 RMK A01 T01960194  RH  099%=      5-min Rain = 0
KGO1 242027Z 09007KT 20/20 A2997 RMK A01 T01960195  RH  099%=      5-min Rain = 0
KGO1 242028Z 10008KT 20/20 A2997 RMK A01 T01960195  RH  099%=      5-min Rain = 0
KGO1 242029Z 09007KT 20/19 A2997 RMK A01 T01960194  RH  099%=      5-min Rain = 0
KGO1 242030Z 09007KT 20/20 A2997 RMK A01 T01960195  RH  099%=      5-min Rain = 0
KGO1 242031Z 10007KT 20/20 A2997 RMK A01 T01950195  RH  099%=      5-min Rain = 0
KGO1 242032Z 09006KT 20/20 A2997 RMK A01 T01950195  RH  099%=      5-min Rain = 0
KGO1 242033Z 09006KT 20/19 A2996 RMK A01 T01950194  RH  099%=      5-min Rain = 0
KGO1 242034Z 09005KT 20/19 A2996 RMK A01 T01950194  RH  099%=      5-min Rain = 0
KGO1 242035Z 09006KT 20/19 A2996 RMK A01 T01950194  RH  100%=      5-min Rain = 0
KGO1 242036Z 09008KT 20/19 A2996 RMK A01 T01950194  RH  100%=      5-min Rain = 0
KGO1 242037Z 09007KT 20/19 A2996 RMK A01 T01950194  RH  100%=      5-min Rain = 0
KGO1 242038Z 10008KT 20/19 A2996 RMK A01 T01950194  RH  100%=      5-min Rain = 0
KGO1 242039Z 10007KT 20/20 A2996 RMK A01 T01950195  RH  100%=      5-min Rain = 0
KGO1 242040Z 10006KT 20/20 A2997 RMK A01 T01950195  RH  100%=      5-min Rain = 0
KGO1 242041Z 10008KT 20/20 A2997 RMK A01 T01950195  RH  100%=      5-min Rain = 0
KGO1 242042Z 10008KT 20/20 A2997 RMK A01 T01950195  RH  100%=      5-min Rain = 0
KGO1 242043Z 11010KT 19/19 A2997 RMK A01 T01940194  RH  100%=      5-min Rain = 0
KGO1 242044Z 11009KT 19/19 A2997 RMK A01 T01940194  RH  100%=      5-min Rain = 0
KGO1 242045Z 11007KT 19/19 A2997 RMK A01 T01940194  RH  100%=      5-min Rain = 0
KGO1 242046Z 11007KT 19/19 A2997 RMK A01 T01940194  RH  100%=      5-min Rain = 0
KGO1 242047Z 11007KT 19/19 A2997 RMK A01 T01940194  RH  100%=      5-min Rain = 0
KGO1 242048Z 12007KT 19/19 A2997 RMK A01 T01940194  RH  100%=      5-min Rain = 0
KGO1 242049Z 11009KT 19/19 A2997 RMK A01 T01940194  RH  100%=      5-min Rain = 0
KGO1 242050Z 11007KT 19/19 A2997 RMK A01 T01940194  RH  100%=      5-min Rain = 0
KGO1 242051Z 10007KT 19/19 A2996 RMK A01 T01930193  RH  100%=      5-min Rain = 0
KGO1 242052Z 10006KT 19/19 A2996 RMK A01 T01930193  RH  100%=      5-min Rain = 0
KGO1 242053Z 10007KT 19/19 A2996 RMK A01 T01930193  RH  100%=      5-min Rain = 0
KGO1 242054Z 10006KT 19/19 A2996 RMK A01 T01930193  RH  100%=      5-min Rain = 0
KGO1 242055Z 10006KT 19/19 A2996 RMK A01 T01930193  RH  100%=      5-min Rain = 0
KGO1 242056Z 10007KT 19/19 A2995 RMK A01 T01930193  RH  100%=      5-min Rain = 0
KGO1 242057Z 10007KT 19/19 A2995 RMK A01 T01920193  RH  100%=      5-min Rain = 0
KGO1 242058Z 09006KT 19/19 A2995 RMK A01 T01920193  RH  100%=      5-min Rain = 0
KGO1 242059Z 09006KT 19/19 A2995 RMK A01 T01920192  RH  100%=      5-min Rain = 0
KGO1 242100Z 09007KT 19/19 A2994 RMK A01 T01920193  RH  100%=      5-min Rain = 0
KGO1 242101Z 09006KT 19/19 A2994 RMK A01 T01920192  RH  100%=      5-min Rain = 0
KGO1 242102Z 08005KT 19/19 A2994 RMK A01 T01920192  RH  100%=      5-min Rain = 0
KGO1 242103Z 08006KT 19/19 A2994 RMK A01 T01910192  RH  100%=      5-min Rain = 0
KGO1 242104Z 08005KT 19/19 A2995 RMK A01 T01920192  RH  100%=      5-min Rain = 0
KGO1 242105Z 08006KT 19/19 A2995 RMK A01 T01920192  RH  100%=      5-min Rain = 0
KGO1 242106Z 09006KT 19/19 A2995 RMK A01 T01910191  RH  100%=      5-min Rain = 0
KGO1 242107Z 09007KT 19/19 A2994 RMK A01 T01910191  RH  100%=      5-min Rain = 0
KGO1 242108Z 08006KT 19/19 A2994 RMK A01 T01910191  RH  100%=      5-min Rain = 0
KGO1 242109Z 08005KT 19/19 A2994 RMK A01 T01910191  RH  100%=      5-min Rain = 0
KGO1 242110Z 07005KT 19/19 A2993 RMK A01 T01910191  RH  100%=      5-min Rain = 0
KGO1 242111Z 07005KT 19/19 A2993 RMK A01 T01910191  RH  100%=      5-min Rain = 0
KGO1 242112Z 07005KT 19/19 A2993 RMK A01 T01910191  RH  100%=      5-min Rain = 0
KGO1 242113Z 06006KT 19/19 A2993 RMK A01 T01900191  RH  100%=      5-min Rain = 0
KGO1 242114Z 08006KT 19/19 A2994 RMK A01 T01910191  RH  100%=      5-min Rain = 0
KGO1 242115Z 08004KT 19/19 A2994 RMK A01 T01910191  RH  100%=      5-min Rain = 0
KGO1 242116Z 08004KT 19/19 A2994 RMK A01 T01910191  RH  100%=      5-min Rain = 0
KGO1 242117Z 08004KT 19/19 A2994 RMK A01 T01910191  RH  100%=      5-min Rain = 0
KGO1 242118Z 09006KT 19/19 A2995 RMK A01 T01910191  RH  100%=      5-min Rain = 0
KGO1 242119Z 09006KT 19/19 A2995 RMK A01 T01920192  RH  100%=      5-min Rain = 0
KGO1 242120Z 09006KT 19/19 A2994 RMK A01 T01920192  RH  100%=      5-min Rain = 0
KGO1 242121Z 09005KT 19/19 A2994 RMK A01 T01920192  RH  100%=      5-min Rain = 0
KGO1 242122Z 09006KT 19/19 A2994 RMK A01 T01920192  RH  100%=      5-min Rain = 0
KGO1 242123Z 09006KT 19/19 A2994 RMK A01 T01920192  RH  100%=      5-min Rain = 0
KGO1 242124Z 09005KT 19/19 A2994 RMK A01 T01920192  RH  100%=      5-min Rain = 0
KGO1 242125Z 10006KT 19/19 A2995 RMK A01 T01920192  RH  100%=      5-min Rain = 0
KGO1 242126Z 10006KT 19/19 A2995 RMK A01 T01920192  RH  100%=      5-min Rain = 0
KGO1 242127Z 10005KT 19/19 A2995 RMK A01 T01920192  RH  100%=      5-min Rain = 0
KGO1 242128Z 10005KT 19/19 A2995 RMK A01 T01920192  RH  100%=      5-min Rain = 0
KGO1 242129Z 10005KT 19/19 A2995 RMK A01 T01920192  RH  100%=      5-min Rain = 0
KGO1 242130Z 10006KT 19/19 A2995 RMK A01 T01920192  RH  100%=      5-min Rain = 0
KGO1 242131Z 10006KT 19/19 A2995 RMK A01 T01920192  RH  100%=      5-min Rain = 0
KGO1 242132Z 12005KT 19/19 A2995 RMK A01 T01910192  RH  100%=      5-min Rain = 0
KGO1 242133Z 12005KT 19/19 A2995 RMK A01 T01910192  RH  100%=      5-min Rain = 0
KGO1 242134Z 12005KT 19/19 A2995 RMK A01 T01910191  RH  100%=      5-min Rain = 0
KGO1 242135Z 11006KT 19/19 A2994 RMK A01 T01910191  RH  100%=      5-min Rain = 0
KGO1 242136Z 11007KT 19/19 A2994 RMK A01 T01910191  RH  100%=      5-min Rain = 0
KGO1 242137Z 10007KT 19/19 A2994 RMK A01 T01910191  RH  100%=      5-min Rain = 0
KGO1 242138Z 10005KT 19/19 A2994 RMK A01 T01910191  RH  100%=      5-min Rain = 0
KGO1 242139Z 10006KT 19/19 A2994 RMK A01 T01910191  RH  100%=      5-min Rain = 0
KGO1 242140Z 10006KT 19/19 A2994 RMK A01 T01910191  RH  100%=      5-min Rain = 0
KGO1 242141Z 10007KT 19/19 A2993 RMK A01 T01910191  RH  100%=      5-min Rain = 0
KGO1 242142Z 09006KT 19/19 A2993 RMK A01 T01910191  RH  100%=      5-min Rain = 0
KGO1 242143Z 09006KT 19/19 A2993 RMK A01 T01910192  RH  100%=      5-min Rain = 0
KGO1 242144Z 10007KT 19/19 A2993 RMK A01 T01920192  RH  100%=      5-min Rain = 0
KGO1 242145Z 10006KT 19/19 A2993 RMK A01 T01920192  RH  100%=      5-min Rain = 0
KGO1 242146Z 09007KT 19/19 A2993 RMK A01 T01920192  RH  100%=      5-min Rain = 0
KGO1 242147Z 09006KT 19/19 A2993 RMK A01 T01920192  RH  100%=      5-min Rain = 0
KGO1 242148Z 10006KT 19/19 A2994 RMK A01 T01920192  RH  100%=      5-min Rain = 0
KGO1 242149Z 10007KT 19/19 A2994 RMK A01 T01920192  RH  100%=      5-min Rain = 0
KGO1 242150Z 10004KT 19/19 A2994 RMK A01 T01920192  RH  100%=      5-min Rain = 0
KGO1 242151Z 09004KT 19/19 A2994 RMK A01 T01920192  RH  100%=      5-min Rain = 0
KGO1 242152Z 09004KT 19/19 A2994 RMK A01 T01920192  RH  100%=      5-min Rain = 0
KGO1 242153Z 08005KT 19/19 A2993 RMK A01 T01920192  RH  100%=      5-min Rain = 0
KGO1 242154Z 07003KT 19/19 A2993 RMK A01 T01910192  RH  100%=      5-min Rain = 0
KGO1 242155Z 08003KT 19/19 A2993 RMK A01 T01910191  RH  100%=      5-min Rain = 0
KGO1 242156Z 08004KT 19/19 A2993 RMK A01 T01910191  RH  100%=      5-min Rain = 0
KGO1 242157Z 09003KT 19/19 A2993 RMK A01 T01910191  RH  100%=      5-min Rain = 0
KGO1 242158Z 09002KT 19/19 A2992 RMK A01 T01910191  RH  100%=      5-min Rain = 0
KGO1 242159Z 07002KT 19/19 A2992 RMK A01 T01910191  RH  100%=      5-min Rain = 0
KGO1 242200Z 08003KT 19/19 A2992 RMK A01 T01900191  RH  100%=      5-min Rain = 0
KGO1 242201Z 07003KT 19/19 A2991 RMK A01 T01910191  RH  100%=      5-min Rain = 0
KGO1 242202Z 07004KT 19/19 A2991 RMK A01 T01910191  RH  100%=      5-min Rain = 0
KGO1 242203Z 08003KT 19/19 A2991 RMK A01 T01910191  RH  100%=      5-min Rain = 0
KGO1 242204Z 09004KT 19/19 A2991 RMK A01 T01910191  RH  100%=      5-min Rain = 0
KGO1 242205Z 09004KT 19/19 A2991 RMK A01 T01910191  RH  100%=      5-min Rain = 0
KGO1 242206Z 09004KT 19/19 A2992 RMK A01 T01910191  RH  100%=      5-min Rain = 0
KGO1 242207Z 10005KT 19/19 A2992 RMK A01 T01910191  RH  100%=      5-min Rain = 0
KGO1 242208Z 10005KT 19/19 A2992 RMK A01 T01910191  RH  100%=      5-min Rain = 0
KGO1 242209Z 10006KT 19/19 A2992 RMK A01 T01910191  RH  100%=      5-min Rain = 0
KGO1 242210Z 09005KT 19/19 A2992 RMK A01 T01920192  RH  100%=      5-min Rain = 0
KGO1 242211Z 09004KT 19/19 A2991 RMK A01 T01920192  RH  100%=      5-min Rain = 0
KGO1 242212Z 09004KT 19/19 A2991 RMK A01 T01920192  RH  100%=      5-min Rain = 0
KGO1 242213Z 08004KT 19/19 A2991 RMK A01 T01910191  RH  100%=      5-min Rain = 0
KGO1 242214Z 09004KT 19/19 A2991 RMK A01 T01910191  RH  100%=      5-min Rain = 0
KGO1 242215Z 09003KT 19/19 A2991 RMK A01 T01910191  RH  100%=      5-min Rain = 0
KGO1 242216Z 09001KT 19/19 A2991 RMK A01 T01910191  RH  100%=      5-min Rain = 0
KGO1 242217Z 09002KT 19/19 A2991 RMK A01 T01910191  RH  100%=      5-min Rain = 0
KGO1 242218Z 07001KT 19/19 A2991 RMK A01 T01910191  RH  100%=      5-min Rain = 0
KGO1 242219Z 07002KT 19/19 A2991 RMK A01 T01910191  RH  100%=      5-min Rain = 0
KGO1 242220Z 08002KT 19/19 A2991 RMK A01 T01910191  RH  100%=      5-min Rain = 0
KGO1 242221Z 09002KT 19/19 A2991 RMK A01 T01910191  RH  100%=      5-min Rain = 0
KGO1 242222Z 09003KT 19/19 A2991 RMK A01 T01910191  RH  100%=      5-min Rain = 0
KGO1 242223Z 10002KT 19/19 A2991 RMK A01 T01910191  RH  100%=      5-min Rain = 0
KGO1 242224Z 09002KT 19/19 A2991 RMK A01 T01910191  RH  100%=      5-min Rain = 0
KGO1 242225Z 10002KT 19/19 A2991 RMK A01 T01910191  RH  100%=      5-min Rain = 0
KGO1 242226Z 08001KT 19/19 A2991 RMK A01 T01910191  RH  100%=      5-min Rain = 0
KGO1 242227Z 10001KT 19/19 A2991 RMK A01 T01910191  RH  100%=      5-min Rain = 0
KGO1 242228Z 10002KT 19/19 A2991 RMK A01 T01920192  RH  100%=      5-min Rain = 0
KGO1 242229Z 11001KT 19/19 A2991 RMK A01 T01920192  RH  100%=      5-min Rain = 0
KGO1 242230Z 11000KT 19/19 A2991 RMK A01 T01920192  RH  100%=      5-min Rain = 0
KGO1 242231Z 00000KT 19/19 A2991 RMK A01 T01920192  RH  100%=      5-min Rain = 0
KGO1 242232Z 00000KT 19/19 A2991 RMK A01 T01920192  RH  100%=      5-min Rain = 0
KGO1 242233Z 00000KT 19/19 A2991 RMK A01 T01910192  RH  100%=      5-min Rain = 0
KGO1 242234Z 11000KT 19/19 A2991 RMK A01 T01920192  RH  100%=      5-min Rain = 0
KGO1 242235Z 11002KT 19/19 A2991 RMK A01 T01920192  RH  100%=      5-min Rain = 0
KGO1 242236Z 11004KT 19/19 A2991 RMK A01 T01910192  RH  100%=      5-min Rain = 0
KGO1 242237Z 11004KT 19/19 A2991 RMK A01 T01920192  RH  100%=      5-min Rain = 0
KGO1 242238Z 11004KT 19/19 A2991 RMK A01 T01910192  RH  100%=      5-min Rain = 0
KGO1 242239Z 11005KT 19/19 A2991 RMK A01 T01920192  RH  100%=      5-min Rain = 0
KGO1 242240Z 11005KT 19/19 A2991 RMK A01 T01920192  RH  100%=      5-min Rain = 0
KGO1 242241Z 12005KT 19/19 A2991 RMK A01 T01920192  RH  100%=      5-min Rain = 0
KGO1 242242Z 11006KT 19/19 A2991 RMK A01 T01930193  RH  100%=      5-min Rain = 0
KGO1 242243Z 12006KT 19/19 A2991 RMK A01 T01930193  RH  100%=      5-min Rain = 0
KGO1 242244Z 11006KT 19/19 A2991 RMK A01 T01930193  RH  100%=      5-min Rain = 0
KGO1 242245Z 11006KT 19/19 A2991 RMK A01 T01930193  RH  100%=      5-min Rain = 0
KGO1 242246Z 10007KT 19/19 A2991 RMK A01 T01930193  RH  100%=      5-min Rain = 0
KGO1 242247Z 10007KT 19/19 A2991 RMK A01 T01930193  RH  100%=      5-min Rain = 0
KGO1 242248Z 10008KT 19/19 A2991 RMK A01 T01930193  RH  100%=      5-min Rain = 0
KGO1 242249Z 10008KT 19/19 A2991 RMK A01 T01930193  RH  100%=      5-min Rain = 0
KGO1 242250Z 10007KT 19/19 A2991 RMK A01 T01920193  RH  100%=      5-min Rain = 0
KGO1 242251Z 10007KT 19/19 A2991 RMK A01 T01920192  RH  100%=      5-min Rain = 0
KGO1 242252Z 10007KT 19/19 A2991 RMK A01 T01920192  RH  100%=      5-min Rain = 0
KGO1 242253Z 11007KT 19/19 A2991 RMK A01 T01920192  RH  100%=      5-min Rain = 0
KGO1 242254Z 11007KT 19/19 A2991 RMK A01 T01920192  RH  100%=      5-min Rain = 0
KGO1 242255Z 10006KT 19/19 A299 RMK A01 T01920192  RH  100%=      5-min Rain = 0
KGO1 242256Z 10007KT 19/19 A299 RMK A01 T01920192  RH  100%=      5-min Rain = 0
KGO1 242257Z 11005KT 19/19 A299 RMK A01 T01910192  RH  100%=      5-min Rain = 0
KGO1 242258Z 11006KT 19/19 A299 RMK A01 T01910191  RH  100%=      5-min Rain = 0
KGO1 242259Z 10005KT 19/19 A299 RMK A01 T01920192  RH  100%=      5-min Rain = 0
KGO1 242300Z 10004KT 19/19 A299 RMK A01 T01920192  RH  100%=      5-min Rain = 0
KGO1 242301Z 10004KT 19/19 A2989 RMK A01 T01910192  RH  100%=      5-min Rain = 0
KGO1 242302Z 09003KT 19/19 A2989 RMK A01 T01920192  RH  100%=      5-min Rain = 0
KGO1 242303Z 09006KT 19/19 A2989 RMK A01 T01920192  RH  100%=      5-min Rain = 0
KGO1 242304Z 10006KT 19/19 A2989 RMK A01 T01920192  RH  100%=      5-min Rain = 0
KGO1 242305Z 10004KT 19/19 A299 RMK A01 T01920192  RH  100%=      5-min Rain = 0
KGO1 242306Z 11004KT 19/19 A299 RMK A01 T01920192  RH  100%=      5-min Rain = 0
KGO1 242307Z 10004KT 19/19 A299 RMK A01 T01920192  RH  100%=      5-min Rain = 0
KGO1 242308Z 10004KT 19/19 A2989 RMK A01 T01910192  RH  100%=      5-min Rain = 0
KGO1 242309Z 10006KT 19/19 A2989 RMK A01 T01920192  RH  100%=      5-min Rain = 0
KGO1 242310Z 10006KT 19/19 A2989 RMK A01 T01920192  RH  100%=      5-min Rain = 0
KGO1 242311Z 11005KT 19/19 A2989 RMK A01 T01910192  RH  100%=      5-min Rain = 0
KGO1 242312Z 12004KT 19/19 A2989 RMK A01 T01910192  RH  100%=      5-min Rain = 0
KGO1 242313Z 12003KT 19/19 A2989 RMK A01 T01920192  RH  100%=      5-min Rain = 0
KGO1 242314Z 12004KT 19/19 A2989 RMK A01 T01920192  RH  100%=      5-min Rain = 0
KGO1 242315Z 12004KT 19/19 A2989 RMK A01 T01920192  RH  100%=      5-min Rain = 0
KGO1 242316Z 10004KT 19/19 A2989 RMK A01 T01920192  RH  100%=      5-min Rain = 0
KGO1 242317Z 10004KT 19/19 A2988 RMK A01 T01920192  RH  100%=      5-min Rain = 0
KGO1 242318Z 10003KT 19/19 A2988 RMK A01 T01920192  RH  100%=      5-min Rain = 0
KGO1 242319Z 11002KT 19/19 A2989 RMK A01 T01910191  RH  100%=      5-min Rain = 0
KGO1 242320Z 11002KT 19/19 A2988 RMK A01 T01910192  RH  100%=      5-min Rain = 0
KGO1 242321Z 11003KT 19/19 A2989 RMK A01 T01920192  RH  100%=      5-min Rain = 0
KGO1 242322Z 11004KT 19/19 A2989 RMK A01 T01910192  RH  100%=      5-min Rain = 0
KGO1 242323Z 11004KT 19/19 A2989 RMK A01 T01920192  RH  100%=      5-min Rain = 0
KGO1 242324Z 11006KT 19/19 A2989 RMK A01 T01910192  RH  100%=      5-min Rain = 0
KGO1 242325Z 11005KT 19/19 A2989 RMK A01 T01920192  RH  100%=      5-min Rain = 0
KGO1 242326Z 12003KT 19/19 A2989 RMK A01 T01920192  RH  100%=      5-min Rain = 0
KGO1 242327Z 12003KT 19/19 A2989 RMK A01 T01920192  RH  100%=      5-min Rain = 0
KGO1 242328Z 12003KT 19/19 A2989 RMK A01 T01920192  RH  100%=      5-min Rain = 0
KGO1 242329Z 13002KT 19/19 A2988 RMK A01 T01920192  RH  100%=      5-min Rain = 0
KGO1 242330Z 12002KT 19/19 A2988 RMK A01 T01920192  RH  100%=      5-min Rain = 0
KGO1 242331Z 12001KT 19/19 A2988 RMK A01 T01920192  RH  100%=      5-min Rain = 0
KGO1 242332Z 00000KT 19/19 A2988 RMK A01 T01920192  RH  100%=      5-min Rain = 0
KGO1 242333Z 00000KT 19/19 A2988 RMK A01 T01920192  RH  100%=      5-min Rain = 0
KGO1 242334Z 00000KT 19/19 A2988 RMK A01 T01910191  RH  100%=      5-min Rain = 0
KGO1 242335Z 02000KT 19/19 A2988 RMK A01 T01920192  RH  100%=      5-min Rain = 0
KGO1 242336Z 01000KT 19/19 A2988 RMK A01 T01920192  RH  100%=      5-min Rain = 0
KGO1 242337Z 34000KT 19/19 A2988 RMK A01 T01910192  RH  100%=      5-min Rain = 0
KGO1 242338Z 33000KT 19/19 A2988 RMK A01 T01910192  RH  100%=      5-min Rain = 0
KGO1 242339Z 32001KT 19/19 A2988 RMK A01 T01920192  RH  100%=      5-min Rain = 0
KGO1 242340Z 34000KT 19/19 A2988 RMK A01 T01920192  RH  100%=      5-min Rain = 0
KGO1 242341Z 34001KT 19/19 A2988 RMK A01 T01920192  RH  100%=      5-min Rain = 0
KGO1 242342Z 32000KT 19/19 A2988 RMK A01 T01910192  RH  100%=      5-min Rain = 0
KGO1 242343Z 32001KT 19/19 A2988 RMK A01 T01910191  RH  100%=      5-min Rain = 0
KGO1 242344Z 31002KT 19/19 A2988 RMK A01 T01910191  RH  100%=      5-min Rain = 0
KGO1 242345Z 31001KT 19/19 A2987 RMK A01 T01910191  RH  100%=      5-min Rain = 0
KGO1 242346Z 31001KT 19/19 A2987 RMK A01 T01910191  RH  100%=      5-min Rain = 0
KGO1 242347Z 30001KT 19/19 A2987 RMK A01 T01910191  RH  100%=      5-min Rain = 0
KGO1 242348Z 00000KT 19/19 A2987 RMK A01 T01910191  RH  100%=      5-min Rain = 0
KGO1 242349Z 00000KT 19/19 A2987 RMK A01 T01910191  RH  100%=      5-min Rain = 0
KGO1 242350Z 00000KT 19/19 A2987 RMK A01 T01910191  RH  100%=      5-min Rain = 0
KGO1 242351Z 21000KT 19/19 A2988 RMK A01 T01910191  RH  100%=      5-min Rain = 0
KGO1 242352Z 20001KT 19/19 A2988 RMK A01 T01910191  RH  100%=      5-min Rain = 0
KGO1 242353Z 20001KT 19/19 A2987 RMK A01 T01910191  RH  100%=      5-min Rain = 0
KGO1 242354Z 00000KT 19/19 A2987 RMK A01 T01910191  RH  100%=      5-min Rain = 0
KGO1 242355Z 00000KT 19/19 A2986 RMK A01 T01910191  RH  100%=      5-min Rain = 0
KGO1 242356Z 00000KT 19/19 A2986 RMK A01 T01910191  RH  100%=      5-min Rain = 0
KGO1 242357Z 00000KT 19/19 A2986 RMK A01 T01910191  RH  100%=      5-min Rain = 0
KGO1 242358Z 00000KT 19/19 A2987 RMK A01 T01900191  RH  100%=      5-min Rain = 0
KGO1 242359Z 00000KT 19/19 A2987 RMK A01 T01910191  RH  100%=      5-min Rain = 0
KGO1 250000Z 00000KT 19/19 A2987 RMK A01 T01910191  RH  100%=      5-min Rain = 0
KGO1 250001Z 00000KT 19/19 A2987 RMK A01 T01910191  RH  100%=      5-min Rain = 0
KGO1 250002Z 34000KT 19/19 A2987 RMK A01 T01910191  RH  100%=      5-min Rain = 0
KGO1 250003Z 34001KT 19/19 A2987 RMK A01 T01910191  RH  100%=      5-min Rain = 0
KGO1 250004Z 35002KT 19/19 A2987 RMK A01 T01890189  RH  100%=      5-min Rain = 0
KGO1 250005Z 35001KT 19/19 A2987 RMK A01 T01880188  RH  100%=      5-min Rain = 0
KGO1 250006Z 35002KT 19/19 A2987 RMK A01 T01870188  RH  100%=      5-min Rain = 0
KGO1 250007Z 35002KT 19/19 A2987 RMK A01 T01870187  RH  100%=      5-min Rain = 0
KGO1 250008Z 35002KT 19/19 A2987 RMK A01 T01870187  RH  100%=      5-min Rain = 0
KGO1 250009Z 35002KT 19/19 A2987 RMK A01 T01880188  RH  100%=      5-min Rain = 0
KGO1 250010Z 34002KT 19/19 A2987 RMK A01 T01880188  RH  100%=      5-min Rain = 0
KGO1 250011Z 32001KT 19/19 A2987 RMK A01 T01880188  RH  100%=      5-min Rain = 0
KGO1 250012Z 33000KT 19/19 A2987 RMK A01 T01890189  RH  100%=      5-min Rain = 0
KGO1 250013Z 00000KT 19/19 A2987 RMK A01 T01890189  RH  100%=      5-min Rain = 0
KGO1 250014Z 08000KT 19/19 A2987 RMK A01 T01890189  RH  100%=      5-min Rain = 0
KGO1 250015Z 00000KT 19/19 A2986 RMK A01 T01900190  RH  100%=      5-min Rain = 0
KGO1 250016Z 00000KT 19/19 A2986 RMK A01 T01890189  RH  100%=      5-min Rain = 0
KGO1 250017Z 00000KT 19/19 A2986 RMK A01 T01900190  RH  100%=      5-min Rain = 0
KGO1 250018Z 00000KT 19/19 A2986 RMK A01 T01900190  RH  100%=      5-min Rain = 0
KGO1 250019Z 00000KT 19/19 A2986 RMK A01 T01890190  RH  100%=      5-min Rain = 0
KGO1 250020Z 00000KT 19/19 A2986 RMK A01 T01890189  RH  100%=      5-min Rain = 0
KGO1 250021Z 00000KT 19/19 A2987 RMK A01 T01890189  RH  100%=      5-min Rain = 0
KGO1 250022Z 00000KT 19/19 A2987 RMK A01 T01890190  RH  100%=      5-min Rain = 0
KGO1 250023Z 00000KT 19/19 A2987 RMK A01 T01900190  RH  100%=      5-min Rain = 0
KGO1 250024Z 13001KT 19/19 A2987 RMK A01 T01900190  RH  100%=      5-min Rain = 0
KGO1 250025Z 13001KT 19/19 A2987 RMK A01 T01900190  RH  100%=      5-min Rain = 0
KGO1 250026Z 13001KT 19/19 A2987 RMK A01 T01900190  RH  100%=      5-min Rain = 0
KGO1 250027Z 13001KT 19/19 A2987 RMK A01 T01900190  RH  100%=      5-min Rain = 0
KGO1 250028Z 13001KT 19/19 A2987 RMK A01 T01910191  RH  100%=      5-min Rain = 0
KGO1 250029Z 12001KT 19/19 A2987 RMK A01 T01910191  RH  100%=      5-min Rain = 0
KGO1 250030Z 11000KT 19/19 A2987 RMK A01 T01910191  RH  100%=      5-min Rain = 0
KGO1 250031Z 00000KT 19/19 A2987 RMK A01 T01920192  RH  100%=      5-min Rain = 0
KGO1 250032Z 00000KT 19/19 A2988 RMK A01 T01920192  RH  100%=      5-min Rain = 0
KGO1 250033Z 00000KT 19/19 A2988 RMK A01 T01920192  RH  100%=      5-min Rain = 0
KGO1 250034Z 13001KT 19/19 A2988 RMK A01 T01920192  RH  100%=      5-min Rain = 0
KGO1 250035Z 12001KT 19/19 A2988 RMK A01 T01920192  RH  100%=      5-min Rain = 0
KGO1 250036Z 11001KT 19/19 A2988 RMK A01 T01910192  RH  100%=      5-min Rain = 0
KGO1 250037Z 11002KT 19/19 A2988 RMK A01 T01920192  RH  100%=      5-min Rain = 0
KGO1 250038Z 11002KT 19/19 A2988 RMK A01 T01920192  RH  100%=      5-min Rain = 0
KGO1 250039Z 10002KT 19/19 A2988 RMK A01 T01920192  RH  100%=      5-min Rain = 0
KGO1 250040Z 09002KT 19/19 A2988 RMK A01 T01920193  RH  100%=      5-min Rain = 0
KGO1 250041Z 09002KT 19/19 A2988 RMK A01 T01930193  RH  100%=      5-min Rain = 0
KGO1 250042Z 10001KT 19/19 A2988 RMK A01 T01930193  RH  100%=      5-min Rain = 0
KGO1 250043Z 10002KT 19/19 A2988 RMK A01 T01930193  RH  100%=      5-min Rain = 0
KGO1 250044Z 11002KT 19/19 A2988 RMK A01 T01930193  RH  100%=      5-min Rain = 0
KGO1 250045Z 11002KT 19/19 A2988 RMK A01 T01930193  RH  100%=      5-min Rain = 0
KGO1 250046Z 11002KT 19/19 A2988 RMK A01 T01930193  RH  100%=      5-min Rain = 0
KGO1 250047Z 12003KT 19/19 A2988 RMK A01 T01930193  RH  100%=      5-min Rain = 0
KGO1 250048Z 14005KT 19/19 A2988 RMK A01 T01930193  RH  100%=      5-min Rain = 0
KGO1 250049Z 14006KT 19/19 A2988 RMK A01 T01940194  RH  100%=      5-min Rain = 0
KGO1 250050Z 11006KT 19/19 A2988 RMK A01 T01930193  RH  100%=      5-min Rain = 0
KGO1 250051Z 13008KT 19/19 A2988 RMK A01 T01930194  RH  100%=      5-min Rain = 0
KGO1 250052Z 14010KT 19/19 A2988 RMK A01 T01930193  RH  100%=      5-min Rain = 0
KGO1 250053Z 14012KT 19/19 A2988 RMK A01 T01930193  RH  100%=      5-min Rain = 0
KGO1 250054Z 15014KT 19/19 A2988 RMK A01 T01920193  RH  100%=      5-min Rain = 0
KGO1 250055Z 15015KT 19/19 A2988 RMK A01 T01890189  RH  100%=      5-min Rain = 0
KGO1 250056Z 16012KT 18/18 A2989 RMK A01 T01820182  RH  100%=      5-min Rain = 0
KGO1 250057Z 16012KT 18/18 A2989 RMK A01 T01790179  RH  100%=      5-min Rain = 0
KGO1 250058Z 15012KT 18/18 A2989 RMK A01 T01770177  RH  100%=      5-min Rain = 0
KGO1 250059Z 15016KT 18/18 A2989 RMK A01 T01750175  RH  100%=      5-min Rain = 0
KGO1 250100Z 15015KT 17/17 A2989 RMK A01 T01720172  RH  100%=      5-min Rain = 0
KGO1 250101Z 16011KT 17/17 A2989 RMK A01 T01710171  RH  100%=      5-min Rain = 0
KGO1 250102Z 15010KT 17/17 A2989 RMK A01 T01710170  RH  099%=      5-min Rain = 0
KGO1 250103Z 16012KT 17/17 A2989 RMK A01 T01720169  RH  098%=      5-min Rain = 0
KGO1 250104Z 15009KT 17/17 A299 RMK A01 T01720166  RH  096%=      5-min Rain = 0
KGO1 250105Z 16010KT 17/17 A299 RMK A01 T01730165  RH  095%=      5-min Rain = 0
KGO1 250106Z 16010KT 17/16 A299 RMK A01 T01730160  RH  092%=      5-min Rain = 0
KGO1 250107Z 15011KT 17/16 A299 RMK A01 T01720157  RH  091%=      5-min Rain = 0
KGO1 250108Z 15010KT 17/15 A299 RMK A01 T01720154  RH  089%=      5-min Rain = 0
KGO1 250109Z 15009KT 17/15 A299 RMK A01 T01720154  RH  090%=      5-min Rain = 0
KGO1 250110Z 15010KT 17/15 A299 RMK A01 T01710153  RH  089%=      5-min Rain = 0
KGO1 250111Z 15008KT 17/15 A299 RMK A01 T01710152  RH  089%=      5-min Rain = 0
KGO1 250112Z 15008KT 17/15 A2989 RMK A01 T01710154  RH  090%=      5-min Rain = 0
KGO1 250113Z 14007KT 17/15 A2989 RMK A01 T01710153  RH  089%=      5-min Rain = 0
KGO1 250114Z 14007KT 17/15 A2989 RMK A01 T01700153  RH  089%=      5-min Rain = 0
KGO1 250115Z 14008KT 17/15 A2989 RMK A01 T01700152  RH  089%=      5-min Rain = 0
KGO1 250116Z 14007KT 17/15 A2989 RMK A01 T01700152  RH  089%=      5-min Rain = 0
KGO1 250117Z 13007KT 17/15 A2989 RMK A01 T01700153  RH  090%=      5-min Rain = 0
KGO1 250118Z 13007KT 17/15 A2989 RMK A01 T01700154  RH  090%=      5-min Rain = 0
KGO1 250119Z 13005KT 17/16 A2989 RMK A01 T01700155  RH  091%=      5-min Rain = 0
KGO1 250120Z 14004KT 17/16 A2989 RMK A01 T01700155  RH  091%=      5-min Rain = 0
KGO1 250121Z 14007KT 17/15 A2989 RMK A01 T01690153  RH  090%=      5-min Rain = 0
KGO1 250122Z 14006KT 17/15 A2989 RMK A01 T01680152  RH  090%=      5-min Rain = 0
KGO1 250123Z 15007KT 17/15 A2989 RMK A01 T01680152  RH  090%=      5-min Rain = 0
KGO1 250124Z 14008KT 17/15 A2989 RMK A01 T01670152  RH  090%=      5-min Rain = 0
KGO1 250125Z 15009KT 17/15 A2989 RMK A01 T01670151  RH  090%=      5-min Rain = 0
KGO1 250126Z 15008KT 17/15 A299 RMK A01 T01670151  RH  091%=      5-min Rain = 0
KGO1 250127Z 15007KT 17/15 A299 RMK A01 T01670152  RH  091%=      5-min Rain = 0
KGO1 250128Z 15007KT 17/15 A299 RMK A01 T01670153  RH  091%=      5-min Rain = 0
KGO1 250129Z 15006KT 17/15 A2989 RMK A01 T01660153  RH  092%=      5-min Rain = 0
KGO1 250130Z 14006KT 17/15 A2989 RMK A01 T01660154  RH  092%=      5-min Rain = 0
KGO1 250131Z 14007KT 17/16 A2989 RMK A01 T01660155  RH  093%=      5-min Rain = 0
KGO1 250132Z 14007KT 17/16 A2989 RMK A01 T01660155  RH  093%=      5-min Rain = 0
KGO1 250133Z 14007KT 17/16 A2989 RMK A01 T01660155  RH  093%=      5-min Rain = 0
KGO1 250134Z 14007KT 17/16 A2989 RMK A01 T01650155  RH  094%=      5-min Rain = 0
KGO1 250135Z 15007KT 16/16 A2989 RMK A01 T01640155  RH  094%=      5-min Rain = 0
KGO1 250136Z 15008KT 16/15 A2989 RMK A01 T01640154  RH  094%=      5-min Rain = 0
KGO1 250137Z 15008KT 16/15 A2989 RMK A01 T01630153  RH  094%=      5-min Rain = 0
KGO1 250138Z 14008KT 16/15 A299 RMK A01 T01630153  RH  094%=      5-min Rain = 0
KGO1 250139Z 14007KT 16/15 A299 RMK A01 T01630154  RH  095%=      5-min Rain = 0
KGO1 250140Z 15006KT 16/15 A299 RMK A01 T01620154  RH  095%=      5-min Rain = 0
KGO1 250141Z 15006KT 16/15 A299 RMK A01 T01620154  RH  095%=      5-min Rain = 0
KGO1 250142Z 16007KT 16/15 A299 RMK A01 T01620154  RH  095%=      5-min Rain = 0
KGO1 250143Z 15008KT 16/15 A299 RMK A01 T01610153  RH  095%=      5-min Rain = 0
KGO1 250144Z 14010KT 16/15 A2991 RMK A01 T01610154  RH  095%=      5-min Rain = 0
KGO1 250145Z 15010KT 16/15 A2991 RMK A01 T01610154  RH  096%=      5-min Rain = 0
KGO1 250146Z 16010KT 16/15 A2991 RMK A01 T01600154  RH  096%=      5-min Rain = 0
KGO1 250147Z 16010KT 16/15 A2991 RMK A01 T01600154  RH  096%=      5-min Rain = 0
KGO1 250148Z 16009KT 16/15 A2991 RMK A01 T01600153  RH  096%=      5-min Rain = 0
KGO1 250149Z 16008KT 16/15 A2991 RMK A01 T01600153  RH  096%=      5-min Rain = 0
KGO1 250150Z 17007KT 16/15 A2991 RMK A01 T01590154  RH  096%=      5-min Rain = 0
KGO1 250151Z 17008KT 16/15 A2991 RMK A01 T01590154  RH  097%=      5-min Rain = 0
KGO1 250152Z 16009KT 16/15 A2991 RMK A01 T01590154  RH  097%=      5-min Rain = 0
KGO1 250153Z 15011KT 16/15 A2991 RMK A01 T01590154  RH  097%=      5-min Rain = 0
KGO1 250154Z 15011KT 16/15 A2991 RMK A01 T01590154  RH  097%=      5-min Rain = 0
KGO1 250155Z 15012KT 16/15 A2991 RMK A01 T01590154  RH  097%=      5-min Rain = 0
KGO1 250156Z 15010KT 16/15 A2991 RMK A01 T01580154  RH  097%=      5-min Rain = 0
KGO1 250157Z 15010KT 16/15 A2991 RMK A01 T01580154  RH  098%=      5-min Rain = 0
KGO1 250158Z 15011KT 16/15 A2992 RMK A01 T01580154  RH  098%=      5-min Rain = 0
KGO1 250159Z 15009KT 16/15 A2991 RMK A01 T01570154  RH  098%=      5-min Rain = 0
KGO1 250200Z 15008KT 16/16 A2991 RMK A01 T01570155  RH  098%=      5-min Rain = 0
KGO1 250201Z 15009KT 16/16 A2991 RMK A01 T01570155  RH  099%=      5-min Rain = 0
KGO1 250202Z 15009KT 16/15 A2991 RMK A01 T01560154  RH  099%=      5-min Rain = 0
KGO1 250203Z 15009KT 16/16 A2991 RMK A01 T01560155  RH  099%=      5-min Rain = 0
KGO1 250204Z 15008KT 16/16 A2992 RMK A01 T01560155  RH  099%=      5-min Rain = 0
KGO1 250205Z 15010KT 16/16 A2991 RMK A01 T01560155  RH  100%=      5-min Rain = 0
KGO1 250206Z 14009KT 16/16 A2992 RMK A01 T01550155  RH  100%=      5-min Rain = 0
KGO1 250207Z 14011KT 16/16 A2992 RMK A01 T01550155  RH  100%=      5-min Rain = 0
KGO1 250208Z 14011KT 16/16 A2992 RMK A01 T01550155  RH  100%=      5-min Rain = 0
KGO1 250209Z 14011KT 16/16 A2992 RMK A01 T01550155  RH  100%=      5-min Rain = 0
KGO1 250210Z 14011KT 16/16 A2992 RMK A01 T01550155  RH  100%=      5-min Rain = 0
KGO1 250211Z 14010KT 16/16 A2992 RMK A01 T01550155  RH  100%=      5-min Rain = 0
KGO1 250212Z 15011G16KT 15/15 A2992 RMK A01 T01540154  RH  100%=      5-min Rain = 0
KGO1 250213Z 14013KT 15/16 A2992 RMK A01 T01540155  RH  100%=      5-min Rain = 0
KGO1 250214Z 15012KT 15/15 A2991 RMK A01 T01540154  RH  100%=      5-min Rain = 0
KGO1 250215Z 16010KT 16/16 A2991 RMK A01 T01550155  RH  100%=      5-min Rain = 0
KGO1 250216Z 16011KT 16/16 A2991 RMK A01 T01550155  RH  100%=      5-min Rain = 0
KGO1 250217Z 16012KT 15/16 A2991 RMK A01 T01540155  RH  100%=      5-min Rain = 0
KGO1 250218Z 16009KT 16/16 A2991 RMK A01 T01550155  RH  100%=      5-min Rain = 0
KGO1 250219Z 17011KT 15/16 A2991 RMK A01 T01540155  RH  100%=      5-min Rain = 0
KGO1 250220Z 16011KT 15/16 A2991 RMK A01 T01540155  RH  100%=      5-min Rain = 0
KGO1 250221Z 16011KT 15/15 A2991 RMK A01 T01540154  RH  100%=      5-min Rain = 0
KGO1 250222Z 17009KT 15/15 A2991 RMK A01 T01540154  RH  100%=      5-min Rain = 0
KGO1 250223Z 16009KT 15/15 A2991 RMK A01 T01540154  RH  100%=      5-min Rain = 0
KGO1 250224Z 16011KT 15/15 A2991 RMK A01 T01540154  RH  100%=      5-min Rain = 0
KGO1 250225Z 15012KT 15/15 A2991 RMK A01 T01530153  RH  100%=      5-min Rain = 0
KGO1 250226Z 15011KT 15/15 A2991 RMK A01 T01530154  RH  100%=      5-min Rain = 0
KGO1 250227Z 15009KT 15/15 A2992 RMK A01 T01540154  RH  100%=      5-min Rain = 0
KGO1 250228Z 15012KT 15/15 A2991 RMK A01 T01540154  RH  100%=      5-min Rain = 0
KGO1 250229Z 15008KT 15/15 A2991 RMK A01 T01540154  RH  100%=      5-min Rain = 0
KGO1 250230Z 17007KT 15/15 A2991 RMK A01 T01540154  RH  100%=      5-min Rain = 0
KGO1 250231Z 19007KT 15/15 A299 RMK A01 T01540154  RH  100%=      5-min Rain = 0
KGO1 250232Z 20007KT 15/15 A299 RMK A01 T01540154  RH  100%=      5-min Rain = 0
KGO1 250233Z 21005KT 15/15 A299 RMK A01 T01540154  RH  100%=      5-min Rain = 0
KGO1 250234Z 22005KT 15/15 A299 RMK A01 T01540154  RH  100%=      5-min Rain = 0
KGO1 250235Z 20005KT 15/15 A299 RMK A01 T01540154  RH  100%=      5-min Rain = 0
KGO1 250236Z 19003KT 15/15 A299 RMK A01 T01530154  RH  100%=      5-min Rain = 0
KGO1 250237Z 18004KT 15/15 A299 RMK A01 T01530153  RH  100%=      5-min Rain = 0
KGO1 250238Z 16006KT 15/15 A299 RMK A01 T01530153  RH  100%=      5-min Rain = 0
KGO1 250239Z 15005KT 15/15 A299 RMK A01 T01530153  RH  100%=      5-min Rain = 0
KGO1 250240Z 15004KT 15/15 A299 RMK A01 T01530153  RH  100%=      5-min Rain = 0
KGO1 250241Z 17004KT 15/15 A299 RMK A01 T01530153  RH  100%=      5-min Rain = 0
KGO1 250242Z 18004KT 15/15 A299 RMK A01 T01530153  RH  100%=      5-min Rain = 0
KGO1 250243Z 20004KT 15/15 A299 RMK A01 T01530153  RH  100%=      5-min Rain = 0
KGO1 250244Z 18003KT 15/15 A299 RMK A01 T01530153  RH  100%=      5-min Rain = 0
KGO1 250245Z 19003KT 15/15 A299 RMK A01 T01530153  RH  100%=      5-min Rain = 0
KGO1 250246Z 18004KT 15/15 A299 RMK A01 T01530153  RH  100%=      5-min Rain = 0
KGO1 250247Z 18005KT 15/15 A299 RMK A01 T01530153  RH  100%=      5-min Rain = 0
KGO1 250248Z 18005KT 15/15 A299 RMK A01 T01530153  RH  100%=      5-min Rain = 0
KGO1 250249Z 19004KT 15/15 A299 RMK A01 T01530153  RH  100%=      5-min Rain = 0
KGO1 250250Z 20004KT 15/15 A2989 RMK A01 T01530153  RH  100%=      5-min Rain = 0
KGO1 250251Z 21003KT 15/15 A2989 RMK A01 T01530153  RH  100%=      5-min Rain = 0
KGO1 250252Z 19003KT 15/15 A2989 RMK A01 T01530153  RH  100%=      5-min Rain = 0
KGO1 250253Z 16003KT 15/15 A2989 RMK A01 T01530153  RH  100%=      5-min Rain = 0
KGO1 250254Z 14003KT 15/15 A2989 RMK A01 T01520153  RH  100%=      5-min Rain = 0
KGO1 250255Z 15005KT 15/15 A299 RMK A01 T01520152  RH  100%=      5-min Rain = 0
KGO1 250256Z 15006KT 15/15 A299 RMK A01 T01520152  RH  100%=      5-min Rain = 0
KGO1 250257Z 16007KT 15/15 A299 RMK A01 T01530153  RH  100%=      5-min Rain = 0
KGO1 250258Z 16007KT 15/15 A2991 RMK A01 T01530153  RH  100%=      5-min Rain = 0
KGO1 250259Z 17006KT 15/15 A2991 RMK A01 T01530153  RH  100%=      5-min Rain = 0
KGO1 250300Z 15007KT 15/15 A2991 RMK A01 T01530153  RH  100%=      5-min Rain = 0
KGO1 250301Z 14009KT 15/15 A2991 RMK A01 T01530153  RH  100%=      5-min Rain = 0
KGO1 250302Z 14008KT 15/15 A2991 RMK A01 T01530154  RH  100%=      5-min Rain = 0
KGO1 250303Z 15006KT 15/15 A2991 RMK A01 T01540154  RH  100%=      5-min Rain = 0
KGO1 250304Z 16005KT 15/15 A2991 RMK A01 T01540154  RH  100%=      5-min Rain = 0
KGO1 250305Z 15007KT 15/15 A2991 RMK A01 T01530154  RH  100%=      5-min Rain = 0
KGO1 250306Z 13008KT 15/15 A2992 RMK A01 T01540154  RH  100%=      5-min Rain = 0
KGO1 250307Z 13008KT 15/15 A2992 RMK A01 T01540154  RH  100%=      5-min Rain = 0
KGO1 250308Z 13007KT 15/15 A2992 RMK A01 T01540154  RH  100%=      5-min Rain = 0
KGO1 250309Z 13006KT 15/15 A2992 RMK A01 T01540154  RH  100%=      5-min Rain = 0
KGO1 250310Z 13006KT 15/16 A2992 RMK A01 T01540155  RH  100%=      5-min Rain = 0
KGO1 250311Z 13008KT 16/16 A2992 RMK A01 T01550155  RH  100%=      5-min Rain = 0
KGO1 250312Z 13010KT 16/16 A2993 RMK A01 T01550155  RH  100%=      5-min Rain = 0
KGO1 250313Z 12009KT 16/16 A2993 RMK A01 T01550155  RH  100%=      5-min Rain = 0
KGO1 250314Z 12008KT 16/16 A2993 RMK A01 T01550155  RH  100%=      5-min Rain = 0
KGO1 250315Z 12008KT 16/16 A2993 RMK A01 T01550155  RH  100%=      5-min Rain = 0
KGO1 250316Z 12008KT 16/16 A2993 RMK A01 T01550155  RH  100%=      5-min Rain = 0
KGO1 250317Z 13006KT 16/16 A2993 RMK A01 T01550155  RH  100%=      5-min Rain = 0
KGO1 250318Z 14007KT 15/15 A2993 RMK A01 T01540154  RH  100%=      5-min Rain = 0
KGO1 250319Z 14009KT 15/15 A2994 RMK A01 T01540154  RH  100%=      5-min Rain = 0
KGO1 250320Z 14011KT 15/16 A2994 RMK A01 T01540155  RH  100%=      5-min Rain = 0
KGO1 250321Z 14010KT 15/16 A2994 RMK A01 T01540155  RH  100%=      5-min Rain = 0
KGO1 250322Z 14007KT 15/15 A2994 RMK A01 T01540154  RH  100%=      5-min Rain = 0
KGO1 250323Z 14006KT 15/15 A2994 RMK A01 T01540154  RH  100%=      5-min Rain = 0
KGO1 250324Z 14006KT 16/16 A2993 RMK A01 T01550155  RH  100%=      5-min Rain = 0
KGO1 250325Z 14007KT 16/16 A2994 RMK A01 T01550155  RH  100%=      5-min Rain = 0
KGO1 250326Z 14011KT 16/16 A2994 RMK A01 T01550155  RH  100%=      5-min Rain = 0
KGO1 250327Z 14010KT 16/16 A2994 RMK A01 T01550155  RH  100%=      5-min Rain = 0
KGO1 250328Z 14007KT 16/16 A2994 RMK A01 T01550155  RH  100%=      5-min Rain = 0
KGO1 250329Z 15006KT 16/16 A2995 RMK A01 T01550155  RH  100%=      5-min Rain = 0
KGO1 250330Z 15010KT 16/16 A2995 RMK A01 T01550156  RH  100%=      5-min Rain = 0
KGO1 250331Z 15011KT 16/16 A2996 RMK A01 T01550155  RH  100%=      5-min Rain = 0
KGO1 250332Z 15010KT 16/16 A2996 RMK A01 T01560156  RH  100%=      5-min Rain = 0
KGO1 250333Z 16012KT 16/16 A2996 RMK A01 T01560156  RH  100%=      5-min Rain = 0
KGO1 250334Z 16011KT 16/16 A2996 RMK A01 T01560156  RH  100%=      5-min Rain = 0
KGO1 250335Z 16011KT 16/16 A2996 RMK A01 T01560156  RH  100%=      5-min Rain = 0
KGO1 250336Z 15012KT 16/16 A2996 RMK A01 T01560156  RH  100%=      5-min Rain = 0
KGO1 250337Z 15010KT 16/16 A2995 RMK A01 T01560157  RH  100%=      5-min Rain = 0
KGO1 250338Z 16009KT 16/16 A2995 RMK A01 T01560156  RH  100%=      5-min Rain = 0
KGO1 250339Z 16011KT 16/16 A2995 RMK A01 T01560156  RH  100%=      5-min Rain = 0
KGO1 250340Z 16009KT 16/16 A2995 RMK A01 T01570157  RH  100%=      5-min Rain = 0
KGO1 250341Z 16007KT 16/16 A2995 RMK A01 T01570157  RH  100%=      5-min Rain = 0
KGO1 250342Z 16008KT 16/16 A2995 RMK A01 T01560157  RH  100%=      5-min Rain = 0
KGO1 250343Z 15010KT 16/16 A2995 RMK A01 T01560157  RH  100%=      5-min Rain = 0
KGO1 250344Z 15010KT 16/16 A2995 RMK A01 T01560156  RH  100%=      5-min Rain = 0
KGO1 250345Z 15009KT 16/16 A2996 RMK A01 T01560156  RH  100%=      5-min Rain = 0
KGO1 250346Z 15011KT 16/16 A2996 RMK A01 T01570157  RH  100%=      5-min Rain = 0
KGO1 250347Z 16014KT 16/16 A2997 RMK A01 T01570157  RH  100%=      5-min Rain = 0
KGO1 250348Z 16012KT 16/16 A2997 RMK A01 T01570157  RH  100%=      5-min Rain = 0
KGO1 250349Z 16010KT 16/16 A2996 RMK A01 T01570157  RH  100%=      5-min Rain = 0
KGO1 250350Z 16008KT 16/16 A2995 RMK A01 T01570157  RH  100%=      5-min Rain = 0
KGO1 250351Z 16010KT 16/16 A2996 RMK A01 T01560156  RH  100%=      5-min Rain = 0
KGO1 250352Z 16010KT 16/16 A2996 RMK A01 T01560156  RH  100%=      5-min Rain = 0
KGO1 250353Z 16009KT 16/16 A2996 RMK A01 T01560156  RH  100%=      5-min Rain = 0
KGO1 250354Z 16011KT 16/16 A2996 RMK A01 T01560156  RH  100%=      5-min Rain = 0
KGO1 250355Z 16011KT 16/16 A2997 RMK A01 T01570157  RH  100%=      5-min Rain = 0
KGO1 250356Z 15010KT 16/16 A2997 RMK A01 T01560156  RH  100%=      5-min Rain = 0
KGO1 250357Z 15011KT 16/16 A2997 RMK A01 T01560156  RH  100%=      5-min Rain = 0
KGO1 250358Z 16010KT 16/16 A2997 RMK A01 T01560157  RH  100%=      5-min Rain = 0
KGO1 250359Z 16010KT 16/16 A2997 RMK A01 T01560157  RH  100%=      5-min Rain = 0
KGO1 250400Z 16011KT 16/16 A2997 RMK A01 T01560156  RH  100%=      5-min Rain = 0
KGO1 250401Z 17009KT 16/16 A2997 RMK A01 T01560157  RH  100%=      5-min Rain = 0
KGO1 250402Z 16008KT 16/16 A2997 RMK A01 T01560156  RH  100%=      5-min Rain = 0
KGO1 250403Z 16007KT 16/16 A2997 RMK A01 T01560156  RH  100%=      5-min Rain = 0
KGO1 250404Z 17006KT 16/16 A2997 RMK A01 T01560157  RH  100%=      5-min Rain = 0
KGO1 250405Z 17006KT 16/16 A2997 RMK A01 T01560156  RH  100%=      5-min Rain = 0
KGO1 250406Z 17006KT 16/16 A2996 RMK A01 T01560156  RH  100%=      5-min Rain = 0
KGO1 250407Z 17006KT 16/16 A2997 RMK A01 T01560156  RH  100%=      5-min Rain = 0
KGO1 250408Z 16006KT 16/16 A2997 RMK A01 T01550155  RH  100%=      5-min Rain = 0
KGO1 250409Z 16006KT 16/16 A2996 RMK A01 T01560156  RH  100%=      5-min Rain = 0
KGO1 250410Z 16007KT 16/16 A2996 RMK A01 T01550156  RH  100%=      5-min Rain = 0
KGO1 250411Z 16006KT 16/16 A2996 RMK A01 T01550155  RH  100%=      5-min Rain = 0
KGO1 250412Z 15007KT 16/16 A2996 RMK A01 T01550155  RH  100%=      5-min Rain = 0
KGO1 250413Z 15006KT 16/16 A2996 RMK A01 T01550155  RH  100%=      5-min Rain = 0
KGO1 250414Z 15006KT 16/16 A2996 RMK A01 T01550155  RH  100%=      5-min Rain = 0
KGO1 250415Z 15007KT 16/16 A2997 RMK A01 T01550155  RH  100%=      5-min Rain = 0
KGO1 250416Z 15007KT 16/16 A2997 RMK A01 T01550155  RH  100%=      5-min Rain = 0
KGO1 250417Z 14006KT 16/16 A2997 RMK A01 T01550155  RH  100%=      5-min Rain = 0
KGO1 250418Z 14007KT 16/16 A2997 RMK A01 T01550155  RH  100%=      5-min Rain = 0
KGO1 250419Z 13006KT 16/16 A2997 RMK A01 T01550155  RH  100%=      5-min Rain = 0
KGO1 250420Z 14006KT 16/16 A2997 RMK A01 T01550155  RH  100%=      5-min Rain = 0
KGO1 250421Z 14004KT 16/16 A2997 RMK A01 T01550155  RH  100%=      5-min Rain = 0
KGO1 250422Z 14004KT 16/16 A2997 RMK A01 T01550155  RH  100%=      5-min Rain = 0
KGO1 250423Z 14004KT 16/16 A2997 RMK A01 T01550155  RH  100%=      5-min Rain = 0
KGO1 250424Z 13003KT 16/16 A2997 RMK A01 T01550155  RH  100%=      5-min Rain = 0
KGO1 250425Z 14004KT 16/16 A2997 RMK A01 T01550155  RH  100%=      5-min Rain = 0
KGO1 250426Z 14002KT 15/16 A2997 RMK A01 T01540155  RH  100%=      5-min Rain = 0
KGO1 250427Z 13002KT 16/16 A2997 RMK A01 T01550155  RH  100%=      5-min Rain = 0
KGO1 250428Z 14002KT 15/16 A2997 RMK A01 T01540155  RH  100%=      5-min Rain = 0
KGO1 250429Z 13002KT 15/15 A2998 RMK A01 T01540154  RH  100%=      5-min Rain = 0
KGO1 250430Z 13002KT 16/16 A2998 RMK A01 T01550155  RH  100%=      5-min Rain = 0
KGO1 250431Z 14003KT 16/16 A2998 RMK A01 T01550155  RH  100%=      5-min Rain = 0
KGO1 250432Z 13004KT 15/16 A2998 RMK A01 T01540155  RH  100%=      5-min Rain = 0
KGO1 250433Z 14003KT 15/16 A2998 RMK A01 T01540155  RH  100%=      5-min Rain = 0
KGO1 250434Z 15003KT 16/16 A2999 RMK A01 T01550155  RH  100%=      5-min Rain = 0
KGO1 250435Z 13004KT 16/16 A2999 RMK A01 T01550155  RH  100%=      5-min Rain = 0
KGO1 250436Z 13004KT 16/16 A2999 RMK A01 T01550155  RH  100%=      5-min Rain = 0
KGO1 250437Z 13004KT 16/16 A2999 RMK A01 T01550155  RH  100%=      5-min Rain = 0
KGO1 250438Z 11002KT 16/16 A2999 RMK A01 T01550155  RH  100%=      5-min Rain = 0
KGO1 250439Z 14000KT 16/16 A2999 RMK A01 T01550156  RH  100%=      5-min Rain = 0
KGO1 250440Z 14002KT 16/16 A2999 RMK A01 T01550155  RH  100%=      5-min Rain = 0
KGO1 250441Z 13004KT 16/16 A2999 RMK A01 T01550155  RH  100%=      5-min Rain = 0
KGO1 250442Z 11004KT 16/16 A2999 RMK A01 T01550155  RH  100%=      5-min Rain = 0
KGO1 250443Z 12004KT 16/16 A2999 RMK A01 T01560156  RH  100%=      5-min Rain = 0
KGO1 250444Z 13004KT 16/16 A2999 RMK A01 T01550155  RH  100%=      5-min Rain = 0
KGO1 250445Z 13005KT 16/16 A2999 RMK A01 T01550155  RH  100%=      5-min Rain = 0
KGO1 250446Z 13004KT 16/16 A2999 RMK A01 T01550155  RH  100%=      5-min Rain = 0
KGO1 250447Z 13005KT 16/16 A2999 RMK A01 T01560156  RH  100%=      5-min Rain = 0
KGO1 250448Z 13007KT 16/16 A2999 RMK A01 T01550155  RH  100%=      5-min Rain = 0
KGO1 250449Z 13009KT 16/16 A2999 RMK A01 T01560156  RH  100%=      5-min Rain = 0
KGO1 250450Z 12008KT 16/16 A2999 RMK A01 T01550155  RH  100%=      5-min Rain = 0
KGO1 250451Z 12007KT 16/16 A2999 RMK A01 T01560156  RH  100%=      5-min Rain = 0
KGO1 250452Z 12007KT 16/16 A2999 RMK A01 T01560156  RH  100%=      5-min Rain = 0
KGO1 250453Z 12006KT 16/16 A2999 RMK A01 T01550155  RH  100%=      5-min Rain = 0
KGO1 250454Z 12006KT 16/16 A2999 RMK A01 T01550155  RH  100%=      5-min Rain = 0
KGO1 250455Z 12007KT 16/16 A2999 RMK A01 T01550155  RH  100%=      5-min Rain = 0
KGO1 250456Z 12007KT 16/16 A2999 RMK A01 T01560156  RH  100%=      5-min Rain = 0
KGO1 250457Z 13008KT 16/16 A2999 RMK A01 T01560156  RH  100%=      5-min Rain = 0
KGO1 250458Z 13007KT 16/16 A30 RMK A01 T01560156  RH  100%=      5-min Rain = 0
KGO1 250459Z 13006KT 16/16 A2999 RMK A01 T01560156  RH  100%=      5-min Rain = 0

Page generated in 0.1515 seconds.